<?xml version='1.0' encoding='utf-8'?>
<gpx xmlns="http://www.topografix.com/GPX/1/1" creator="HOLUX ezTour Plus" version="1.1">
<metadata>
<link href="http://www.holux.com"><text>HOLUX Technology, Inc.</text></link>
<time>2012-08-01T18:46:13Z</time></metadata>
<trk>
<name>raw1</name>
<trkseg>
<trkpt lat="64.137916565" lon="-21.934911728">
<ele>7.7</ele>
<time>2012-07-18T09:41:00Z</time>
<speed>0.120000</speed>
<extensions>
<speed>0.1</speed>
<temp>0.00</temp>
<bpm>0</bpm>
<rpm>0.00</rpm>
</extensions>
</trkpt>
<trkpt lat="64.138084412" lon="-21.934680939">
<ele>7.3</ele>
<time>2012-07-18T09:41:20Z</time>
<speed>0.740000</speed>
<extensions>
<speed>0.7</speed>
<temp>0.00</temp>
<bpm>0</bpm>
<rpm>0.00</rpm>
</extensions>
</trkpt>
<trkpt lat="64.137428284" lon="-21.935245514">
<ele>7.3</ele>
<time>2012-07-18T09:43:20Z</time>
<speed>0.240000</speed>
<extensions>
<speed>0.2</speed>
<temp>0.00</temp>
<bpm>0</bpm>
<rpm>0.00</rpm>
</extensions>
</trkpt>
<trkpt lat="64.137725830" lon="-21.934530258">
<ele>8.1</ele>
<time>2012-07-18T09:45:35Z</time>
<speed>0.020000</speed>
<extensions>
<speed>0.0</speed>
<temp>0.00</temp>
<bpm>0</bpm>
<rpm>0.00</rpm>
</extensions>
</trkpt>
<trkpt lat="64.137519836" lon="-21.934782028">
<ele>7.8</ele>
<time>2012-07-18T09:47:00Z</time>
<speed>0.140000</speed>
<extensions>
<speed>0.1</speed>
<temp>0.00</temp>
<bpm>0</bpm>
<rpm>0.00</rpm>
</extensions>
</trkpt>
<trkpt lat="64.137794495" lon="-21.934581757">
<ele>8.0</ele>
<time>2012-07-18T09:55:05Z</time>
<speed>0.090000</speed>
<extensions>
<speed>0.1</speed>
<temp>0.00</temp>
<bpm>0</bpm>
<rpm>0.00</rpm>
</extensions>
</trkpt>
<trkpt lat="64.137596130" lon="-21.934549332">
<ele>8.1</ele>
<time>2012-07-18T09:55:25Z</time>
<speed>0.310000</speed>
<extensions>
<speed>0.3</speed>
<temp>0.00</temp>
<bpm>0</bpm>
<rpm>0.00</rpm>
</extensions>
</trkpt>
<trkpt lat="64.137771606" lon="-21.934465408">
<ele>8.0</ele>
<time>2012-07-18T09:57:40Z</time>
<speed>0.140000</speed>
<extensions>
<speed>0.1</speed>
<temp>0.00</temp>
<bpm>0</bpm>
<rpm>0.00</rpm>
</extensions>
</trkpt>
<trkpt lat="64.137489319" lon="-21.934587479">
<ele>7.7</ele>
<time>2012-07-18T10:00:20Z</time>
<speed>0.050000</speed>
<extensions>
<speed>0.1</speed>
<temp>0.00</temp>
<bpm>0</bpm>
<rpm>0.00</rpm>
</extensions>
</trkpt>
<trkpt lat="64.138008118" lon="-21.935283661">
<ele>7.3</ele>
<time>2012-07-18T10:00:50Z</time>
<speed>3.640000</speed>
<extensions>
<speed>3.6</speed>
<temp>0.00</temp>
<bpm>0</bpm>
<rpm>0.00</rpm>
</extensions>
</trkpt>
<trkpt lat="64.138259888" lon="-21.936487198">
<ele>6.2</ele>
<time>2012-07-18T10:01:05Z</time>
<speed>4.480000</speed>
<extensions>
<speed>4.5</speed>
<temp>0.00</temp>
<bpm>0</bpm>
<rpm>0.00</rpm>
</extensions>
</trkpt>
<trkpt lat="64.138656616" lon="-21.936431885">
<ele>6.3</ele>
<time>2012-07-18T10:01:25Z</time>
<speed>0.050000</speed>
<extensions>
<speed>0.1</speed>
<temp>0.00</temp>
<bpm>0</bpm>
<rpm>0.00</rpm>
</extensions>
</trkpt>
<trkpt lat="64.138786316" lon="-21.936790466">
<ele>6.1</ele>
<time>2012-07-18T10:01:55Z</time>
<extensions>
<speed>0.0</speed>
<temp>0.00</temp>
<bpm>0</bpm>
<rpm>0.00</rpm>
</extensions>
</trkpt>
<trkpt lat="64.139175415" lon="-21.939737320">
<ele>5.7</ele>
<time>2012-07-18T10:03:40Z</time>
<speed>3.520000</speed>
<extensions>
<speed>3.5</speed>
<temp>0.00</temp>
<bpm>0</bpm>
<rpm>0.00</rpm>
</extensions>
</trkpt>
<trkpt lat="64.139839172" lon="-21.941106796">
<ele>5.3</ele>
<time>2012-07-18T10:04:00Z</time>
<speed>7.120000</speed>
<extensions>
<speed>7.1</speed>
<temp>0.00</temp>
<bpm>0</bpm>
<rpm>0.00</rpm>
</extensions>
</trkpt>
<trkpt lat="64.140441895" lon="-21.941761017">
<ele>2.8</ele>
<time>2012-07-18T10:04:10Z</time>
<speed>7.000000</speed>
<extensions>
<speed>7.0</speed>
<temp>0.00</temp>
<bpm>0</bpm>
<rpm>0.00</rpm>
</extensions>
</trkpt>
<trkpt lat="64.140960693" lon="-21.941722870">
<ele>1.8</ele>
<time>2012-07-18T10:04:20Z</time>
<speed>5.330000</speed>
<extensions>
<speed>5.3</speed>
<temp>0.00</temp>
<bpm>0</bpm>
<rpm>0.00</rpm>
</extensions>
</trkpt>
<trkpt lat="64.142051697" lon="-21.940767288">
<ele>3.4</ele>
<time>2012-07-18T10:05:05Z</time>
<extensions>
<speed>0.0</speed>
<temp>0.00</temp>
<bpm>0</bpm>
<rpm>0.00</rpm>
</extensions>
</trkpt>
<trkpt lat="64.145515442" lon="-21.939405441">
<ele>2.5</ele>
<time>2012-07-18T10:09:00Z</time>
<speed>0.930000</speed>
<extensions>
<speed>0.9</speed>
<temp>0.00</temp>
<bpm>0</bpm>
<rpm>0.00</rpm>
</extensions>
</trkpt>
<trkpt lat="64.147720337" lon="-21.935789108">
<ele>4.0</ele>
<time>2012-07-18T10:11:30Z</time>
<speed>1.000000</speed>
<extensions>
<speed>1.0</speed>
<temp>0.00</temp>
<bpm>0</bpm>
<rpm>0.00</rpm>
</extensions>
</trkpt>
<trkpt lat="64.148078918" lon="-21.936782837">
<ele>3.6</ele>
<time>2012-07-18T10:13:55Z</time>
<speed>1.260000</speed>
<extensions>
<speed>1.3</speed>
<temp>0.00</temp>
<bpm>0</bpm>
<rpm>0.00</rpm>
</extensions>
</trkpt>
<trkpt lat="64.148330688" lon="-21.938377380">
<ele>5.9</ele>
<time>2012-07-18T10:15:20Z</time>
<speed>0.060000</speed>
<extensions>
<speed>0.1</speed>
<temp>0.00</temp>
<bpm>0</bpm>
<rpm>0.00</rpm>
</extensions>
</trkpt>
<trkpt lat="64.148292542" lon="-21.937917709">
<ele>4.5</ele>
<time>2012-07-18T10:15:40Z</time>
<speed>1.980000</speed>
<extensions>
<speed>2.0</speed>
<temp>0.00</temp>
<bpm>0</bpm>
<rpm>0.00</rpm>
</extensions>
</trkpt>
<trkpt lat="64.148178101" lon="-21.937917709">
<ele>5.2</ele>
<time>2012-07-18T10:15:45Z</time>
<speed>1.790000</speed>
<extensions>
<speed>1.8</speed>
<temp>0.00</temp>
<bpm>0</bpm>
<rpm>0.00</rpm>
</extensions>
</trkpt>
<trkpt lat="64.147537231" lon="-21.938604355">
<ele>9.3</ele>
<time>2012-07-18T10:18:05Z</time>
<speed>1.720000</speed>
<extensions>
<speed>1.7</speed>
<temp>0.00</temp>
<bpm>0</bpm>
<rpm>0.00</rpm>
</extensions>
</trkpt>
<trkpt lat="64.147369385" lon="-21.936994553">
<ele>3.4</ele>
<time>2012-07-18T10:18:35Z</time>
<speed>1.700000</speed>
<extensions>
<speed>1.7</speed>
<temp>0.00</temp>
<bpm>0</bpm>
<rpm>0.00</rpm>
</extensions>
</trkpt>
<trkpt lat="64.147125244" lon="-21.936729431">
<ele>4.2</ele>
<time>2012-07-18T10:19:35Z</time>
<speed>1.590000</speed>
<extensions>
<speed>1.6</speed>
<temp>0.00</temp>
<bpm>0</bpm>
<rpm>0.00</rpm>
</extensions>
</trkpt>
<trkpt lat="64.146743774" lon="-21.934507370">
<ele>18.0</ele>
<time>2012-07-18T10:20:50Z</time>
<speed>0.570000</speed>
<extensions>
<speed>0.6</speed>
<temp>0.00</temp>
<bpm>0</bpm>
<rpm>0.00</rpm>
</extensions>
</trkpt>
<trkpt lat="64.146766663" lon="-21.933841705">
<ele>17.0</ele>
<time>2012-07-18T10:21:10Z</time>
<speed>1.230000</speed>
<extensions>
<speed>1.2</speed>
<temp>0.00</temp>
<bpm>0</bpm>
<rpm>0.00</rpm>
</extensions>
</trkpt>
<trkpt lat="64.146636963" lon="-21.933687210">
<ele>18.7</ele>
<time>2012-07-18T10:22:10Z</time>
<speed>1.200000</speed>
<extensions>
<speed>1.2</speed>
<temp>0.00</temp>
<bpm>0</bpm>
<rpm>0.00</rpm>
</extensions>
</trkpt>
<trkpt lat="64.146781921" lon="-21.934083939">
<ele>17.1</ele>
<time>2012-07-18T10:22:45Z</time>
<speed>0.170000</speed>
<extensions>
<speed>0.2</speed>
<temp>0.00</temp>
<bpm>0</bpm>
<rpm>0.00</rpm>
</extensions>
</trkpt>
<trkpt lat="64.146614075" lon="-21.934286118">
<ele>18.0</ele>
<time>2012-07-18T10:25:25Z</time>
<speed>0.060000</speed>
<extensions>
<speed>0.1</speed>
<temp>0.00</temp>
<bpm>0</bpm>
<rpm>0.00</rpm>
</extensions>
</trkpt>
<trkpt lat="64.146720886" lon="-21.934215546">
<ele>17.7</ele>
<time>2012-07-18T10:26:15Z</time>
<speed>0.560000</speed>
<extensions>
<speed>0.6</speed>
<temp>0.00</temp>
<bpm>0</bpm>
<rpm>0.00</rpm>
</extensions>
</trkpt>
<trkpt lat="64.146270752" lon="-21.932806015">
<ele>23.6</ele>
<time>2012-07-18T10:27:20Z</time>
<speed>1.370000</speed>
<extensions>
<speed>1.4</speed>
<temp>0.00</temp>
<bpm>0</bpm>
<rpm>0.00</rpm>
</extensions>
</trkpt>
<trkpt lat="64.146224976" lon="-21.932329178">
<ele>21.9</ele>
<time>2012-07-18T10:27:55Z</time>
<speed>0.040000</speed>
<extensions>
<speed>0.0</speed>
<temp>0.00</temp>
<bpm>0</bpm>
<rpm>0.00</rpm>
</extensions>
</trkpt>
<trkpt lat="64.146400452" lon="-21.932823181">
<ele>21.5</ele>
<time>2012-07-18T10:28:20Z</time>
<speed>0.190000</speed>
<extensions>
<speed>0.2</speed>
<temp>0.00</temp>
<bpm>0</bpm>
<rpm>0.00</rpm>
</extensions>
</trkpt>
<trkpt lat="64.146171570" lon="-21.932174683">
<ele>21.6</ele>
<time>2012-07-18T10:28:40Z</time>
<speed>2.380000</speed>
<extensions>
<speed>2.4</speed>
<temp>0.00</temp>
<bpm>0</bpm>
<rpm>0.00</rpm>
</extensions>
</trkpt>
<trkpt lat="64.146171570" lon="-21.931230545">
<ele>21.7</ele>
<time>2012-07-18T10:36:25Z</time>
<speed>0.210000</speed>
<extensions>
<speed>0.2</speed>
<temp>0.00</temp>
<bpm>0</bpm>
<rpm>0.00</rpm>
</extensions>
</trkpt>
<trkpt lat="64.146835327" lon="-21.934740067">
<ele>18.1</ele>
<time>2012-07-18T10:37:50Z</time>
<speed>3.200000</speed>
<extensions>
<speed>3.2</speed>
<temp>0.00</temp>
<bpm>0</bpm>
<rpm>0.00</rpm>
</extensions>
</trkpt>
<trkpt lat="64.147346497" lon="-21.936239243">
<ele>3.4</ele>
<time>2012-07-18T10:38:20Z</time>
<speed>2.310000</speed>
<extensions>
<speed>2.3</speed>
<temp>0.00</temp>
<bpm>0</bpm>
<rpm>0.00</rpm>
</extensions>
</trkpt>
<trkpt lat="64.147941589" lon="-21.940925598">
<ele>6.2</ele>
<time>2012-07-18T10:40:15Z</time>
<speed>1.240000</speed>
<extensions>
<speed>1.2</speed>
<temp>0.00</temp>
<bpm>0</bpm>
<rpm>0.00</rpm>
</extensions>
</trkpt>
<trkpt lat="64.148231506" lon="-21.940738678">
<ele>4.8</ele>
<time>2012-07-18T10:40:30Z</time>
<speed>1.080000</speed>
<extensions>
<speed>1.1</speed>
<temp>0.00</temp>
<bpm>0</bpm>
<rpm>0.00</rpm>
</extensions>
</trkpt>
<trkpt lat="64.148399353" lon="-21.941333771">
<ele>3.5</ele>
<time>2012-07-18T10:40:45Z</time>
<speed>1.140000</speed>
<extensions>
<speed>1.1</speed>
<temp>0.00</temp>
<bpm>0</bpm>
<rpm>0.00</rpm>
</extensions>
</trkpt>
<trkpt lat="64.148834229" lon="-21.941690445">
<ele>6.0</ele>
<time>2012-07-18T10:41:10Z</time>
<speed>1.260000</speed>
<extensions>
<speed>1.3</speed>
<temp>0.00</temp>
<bpm>0</bpm>
<rpm>0.00</rpm>
</extensions>
</trkpt>
<trkpt lat="64.149177551" lon="-21.941377640">
<ele>5.9</ele>
<time>2012-07-18T10:41:30Z</time>
<speed>2.380000</speed>
<extensions>
<speed>2.4</speed>
<temp>0.00</temp>
<bpm>0</bpm>
<rpm>0.00</rpm>
</extensions>
</trkpt>
<trkpt lat="64.150299072" lon="-21.942657471">
<ele>3.4</ele>
<time>2012-07-18T10:43:10Z</time>
<speed>4.570000</speed>
<extensions>
<speed>4.6</speed>
<temp>0.00</temp>
<bpm>0</bpm>
<rpm>0.00</rpm>
</extensions>
</trkpt>
<trkpt lat="64.150764465" lon="-21.944005966">
<ele>9.2</ele>
<time>2012-07-18T10:43:30Z</time>
<speed>4.240000</speed>
<extensions>
<speed>4.2</speed>
<temp>0.00</temp>
<bpm>0</bpm>
<rpm>0.00</rpm>
</extensions>
</trkpt>
<trkpt lat="64.151176453" lon="-21.947635651">
<ele>9.0</ele>
<time>2012-07-18T10:44:10Z</time>
<speed>5.110000</speed>
<extensions>
<speed>5.1</speed>
<temp>0.00</temp>
<bpm>0</bpm>
<rpm>0.00</rpm>
</extensions>
</trkpt>
<trkpt lat="64.152618408" lon="-21.952001572">
<ele>8.4</ele>
<time>2012-07-18T10:45:05Z</time>
<speed>5.510000</speed>
<extensions>
<speed>5.5</speed>
<temp>0.00</temp>
<bpm>0</bpm>
<rpm>0.00</rpm>
</extensions>
</trkpt>
<trkpt lat="64.153533936" lon="-21.952470779">
<ele>5.1</ele>
<time>2012-07-18T10:45:35Z</time>
<speed>5.100000</speed>
<extensions>
<speed>5.1</speed>
<temp>0.00</temp>
<bpm>0</bpm>
<rpm>0.00</rpm>
</extensions>
</trkpt>
<trkpt lat="64.153961182" lon="-21.951519012">
<ele>4.4</ele>
<time>2012-07-18T10:45:50Z</time>
<speed>3.750000</speed>
<extensions>
<speed>3.8</speed>
<temp>0.00</temp>
<bpm>0</bpm>
<rpm>0.00</rpm>
</extensions>
</trkpt>
<trkpt lat="64.154113770" lon="-21.951534271">
<ele>4.0</ele>
<time>2012-07-18T10:45:55Z</time>
<speed>3.270000</speed>
<extensions>
<speed>3.3</speed>
<temp>0.00</temp>
<bpm>0</bpm>
<rpm>0.00</rpm>
</extensions>
</trkpt>
<trkpt lat="64.154190063" lon="-21.952716827">
<ele>4.9</ele>
<time>2012-07-18T10:46:40Z</time>
<speed>0.840000</speed>
<extensions>
<speed>0.8</speed>
<temp>0.00</temp>
<bpm>0</bpm>
<rpm>0.00</rpm>
</extensions>
</trkpt>
<trkpt lat="64.153984070" lon="-21.952930450">
<ele>3.9</ele>
<time>2012-07-18T11:01:50Z</time>
<speed>0.090000</speed>
<extensions>
<speed>0.1</speed>
<temp>0.00</temp>
<bpm>0</bpm>
<rpm>0.00</rpm>
</extensions>
</trkpt>
<trkpt lat="64.154113770" lon="-21.952936172">
<ele>4.5</ele>
<time>2012-07-18T11:06:15Z</time>
<speed>0.070000</speed>
<extensions>
<speed>0.1</speed>
<temp>0.00</temp>
<bpm>0</bpm>
<rpm>0.00</rpm>
</extensions>
</trkpt>
<trkpt lat="64.154022217" lon="-21.952789307">
<ele>3.9</ele>
<time>2012-07-18T11:16:05Z</time>
<speed>0.170000</speed>
<extensions>
<speed>0.2</speed>
<temp>0.00</temp>
<bpm>0</bpm>
<rpm>0.00</rpm>
</extensions>
</trkpt>
<trkpt lat="64.153999329" lon="-21.953458786">
<ele>3.8</ele>
<time>2012-07-18T11:23:20Z</time>
<speed>0.150000</speed>
<extensions>
<speed>0.2</speed>
<temp>0.00</temp>
<bpm>0</bpm>
<rpm>0.00</rpm>
</extensions>
</trkpt>
<trkpt lat="64.153739929" lon="-21.952695847">
<ele>4.4</ele>
<time>2012-07-18T11:30:15Z</time>
<speed>1.160000</speed>
<extensions>
<speed>1.2</speed>
<temp>0.00</temp>
<bpm>0</bpm>
<rpm>0.00</rpm>
</extensions>
</trkpt>
<trkpt lat="64.153015137" lon="-21.953187943">
<ele>3.6</ele>
<time>2012-07-18T11:30:45Z</time>
<speed>3.540000</speed>
<extensions>
<speed>3.5</speed>
<temp>0.00</temp>
<bpm>0</bpm>
<rpm>0.00</rpm>
</extensions>
</trkpt>
<trkpt lat="64.152709961" lon="-21.952959061">
<ele>4.7</ele>
<time>2012-07-18T11:30:55Z</time>
<speed>3.970000</speed>
<extensions>
<speed>4.0</speed>
<temp>0.00</temp>
<bpm>0</bpm>
<rpm>0.00</rpm>
</extensions>
</trkpt>
<trkpt lat="64.151130676" lon="-21.947759628">
<ele>8.9</ele>
<time>2012-07-18T11:32:20Z</time>
<speed>1.140000</speed>
<extensions>
<speed>1.1</speed>
<temp>0.00</temp>
<bpm>0</bpm>
<rpm>0.00</rpm>
</extensions>
</trkpt>
<trkpt lat="64.150672913" lon="-21.944244385">
<ele>11.0</ele>
<time>2012-07-18T11:33:20Z</time>
<speed>5.870000</speed>
<extensions>
<speed>5.9</speed>
<temp>0.00</temp>
<bpm>0</bpm>
<rpm>0.00</rpm>
</extensions>
</trkpt>
<trkpt lat="64.150276184" lon="-21.943233490">
<ele>3.7</ele>
<time>2012-07-18T11:33:35Z</time>
<speed>3.940000</speed>
<extensions>
<speed>3.9</speed>
<temp>0.00</temp>
<bpm>0</bpm>
<rpm>0.00</rpm>
</extensions>
</trkpt>
<trkpt lat="64.149223328" lon="-21.941720963">
<ele>5.8</ele>
<time>2012-07-18T11:34:30Z</time>
<speed>1.530000</speed>
<extensions>
<speed>1.5</speed>
<temp>0.00</temp>
<bpm>0</bpm>
<rpm>0.00</rpm>
</extensions>
</trkpt>
<trkpt lat="64.148986816" lon="-21.940931320">
<ele>7.0</ele>
<time>2012-07-18T11:35:00Z</time>
<speed>0.540000</speed>
<extensions>
<speed>0.5</speed>
<temp>0.00</temp>
<bpm>0</bpm>
<rpm>0.00</rpm>
</extensions>
</trkpt>
<trkpt lat="64.149093628" lon="-21.941333771">
<ele>5.2</ele>
<time>2012-07-18T11:35:20Z</time>
<speed>1.450000</speed>
<extensions>
<speed>1.4</speed>
<temp>0.00</temp>
<bpm>0</bpm>
<rpm>0.00</rpm>
</extensions>
</trkpt>
<trkpt lat="64.148994446" lon="-21.941444397">
<ele>5.0</ele>
<time>2012-07-18T11:35:30Z</time>
<speed>1.010000</speed>
<extensions>
<speed>1.0</speed>
<temp>0.00</temp>
<bpm>0</bpm>
<rpm>0.00</rpm>
</extensions>
</trkpt>
<trkpt lat="64.148437500" lon="-21.941198349">
<ele>3.6</ele>
<time>2012-07-18T11:36:55Z</time>
<speed>0.170000</speed>
<extensions>
<speed>0.2</speed>
<temp>0.00</temp>
<bpm>0</bpm>
<rpm>0.00</rpm>
</extensions>
</trkpt>
<trkpt lat="64.148315430" lon="-21.940399170">
<ele>5.7</ele>
<time>2012-07-18T11:38:35Z</time>
<speed>2.110000</speed>
<extensions>
<speed>2.1</speed>
<temp>0.00</temp>
<bpm>0</bpm>
<rpm>0.00</rpm>
</extensions>
</trkpt>
<trkpt lat="64.148597717" lon="-21.939945221">
<ele>8.7</ele>
<time>2012-07-18T11:39:00Z</time>
<speed>1.290000</speed>
<extensions>
<speed>1.3</speed>
<temp>0.00</temp>
<bpm>0</bpm>
<rpm>0.00</rpm>
</extensions>
</trkpt>
<trkpt lat="64.148574829" lon="-21.940448761">
<ele>5.6</ele>
<time>2012-07-18T11:39:15Z</time>
<speed>1.820000</speed>
<extensions>
<speed>1.8</speed>
<temp>0.00</temp>
<bpm>0</bpm>
<rpm>0.00</rpm>
</extensions>
</trkpt>
<trkpt lat="64.148971558" lon="-21.940969467">
<ele>6.7</ele>
<time>2012-07-18T11:40:20Z</time>
<speed>0.050000</speed>
<extensions>
<speed>0.1</speed>
<temp>0.00</temp>
<bpm>0</bpm>
<rpm>0.00</rpm>
</extensions>
</trkpt>
<trkpt lat="64.148765564" lon="-21.941431046">
<ele>7.4</ele>
<time>2012-07-18T11:40:40Z</time>
<speed>0.840000</speed>
<extensions>
<speed>0.8</speed>
<temp>0.00</temp>
<bpm>0</bpm>
<rpm>0.00</rpm>
</extensions>
</trkpt>
<trkpt lat="64.148315430" lon="-21.941051483">
<ele>3.5</ele>
<time>2012-07-18T11:41:10Z</time>
<speed>0.190000</speed>
<extensions>
<speed>0.2</speed>
<temp>0.00</temp>
<bpm>0</bpm>
<rpm>0.00</rpm>
</extensions>
</trkpt>
<trkpt lat="64.147865295" lon="-21.941698074">
<ele>6.1</ele>
<time>2012-07-18T11:55:40Z</time>
<speed>0.180000</speed>
<extensions>
<speed>0.2</speed>
<temp>0.00</temp>
<bpm>0</bpm>
<rpm>0.00</rpm>
</extensions>
</trkpt>
<trkpt lat="64.146514893" lon="-21.938953400">
<ele>5.2</ele>
<time>2012-07-18T11:57:20Z</time>
<speed>2.440000</speed>
<extensions>
<speed>2.4</speed>
<temp>0.00</temp>
<bpm>0</bpm>
<rpm>0.00</rpm>
</extensions>
</trkpt>
<trkpt lat="64.146377563" lon="-21.937986374">
<ele>2.9</ele>
<time>2012-07-18T11:58:30Z</time>
<speed>0.750000</speed>
<extensions>
<speed>0.8</speed>
<temp>0.00</temp>
<bpm>0</bpm>
<rpm>0.00</rpm>
</extensions>
</trkpt>
<trkpt lat="64.145576477" lon="-21.939321518">
<ele>2.9</ele>
<time>2012-07-18T11:59:05Z</time>
<speed>3.610000</speed>
<extensions>
<speed>3.6</speed>
<temp>0.00</temp>
<bpm>0</bpm>
<rpm>0.00</rpm>
</extensions>
</trkpt>
<trkpt lat="64.142929077" lon="-21.940383911">
<ele>3.3</ele>
<time>2012-07-18T12:00:10Z</time>
<speed>3.560000</speed>
<extensions>
<speed>3.6</speed>
<temp>0.00</temp>
<bpm>0</bpm>
<rpm>0.00</rpm>
</extensions>
</trkpt>
<trkpt lat="64.139823914" lon="-21.938032150">
<ele>6.9</ele>
<time>2012-07-18T12:01:55Z</time>
<speed>1.820000</speed>
<extensions>
<speed>1.8</speed>
<temp>0.00</temp>
<bpm>0</bpm>
<rpm>0.00</rpm>
</extensions>
</trkpt>
<trkpt lat="64.139610291" lon="-21.938228607">
<ele>6.3</ele>
<time>2012-07-18T12:02:20Z</time>
<speed>1.640000</speed>
<extensions>
<speed>1.6</speed>
<temp>0.00</temp>
<bpm>0</bpm>
<rpm>0.00</rpm>
</extensions>
</trkpt>
<trkpt lat="64.139183044" lon="-21.937597275">
<ele>6.7</ele>
<time>2012-07-18T12:02:35Z</time>
<speed>3.320000</speed>
<extensions>
<speed>3.3</speed>
<temp>0.00</temp>
<bpm>0</bpm>
<rpm>0.00</rpm>
</extensions>
</trkpt>
<trkpt lat="64.138702393" lon="-21.936203003">
<ele>6.4</ele>
<time>2012-07-18T12:03:00Z</time>
<speed>3.070000</speed>
<extensions>
<speed>3.1</speed>
<temp>0.00</temp>
<bpm>0</bpm>
<rpm>0.00</rpm>
</extensions>
</trkpt>
<trkpt lat="64.136741638" lon="-21.923667908">
<ele>21.6</ele>
<time>2012-07-18T12:08:30Z</time>
<speed>0.940000</speed>
<extensions>
<speed>0.9</speed>
<temp>0.00</temp>
<bpm>0</bpm>
<rpm>0.00</rpm>
</extensions>
</trkpt>
<trkpt lat="64.135406494" lon="-21.923736572">
<ele>18.4</ele>
<time>2012-07-18T12:10:00Z</time>
<speed>4.250000</speed>
<extensions>
<speed>4.3</speed>
<temp>0.00</temp>
<bpm>0</bpm>
<rpm>0.00</rpm>
</extensions>
</trkpt>
<trkpt lat="64.135208130" lon="-21.923879623">
<ele>18.5</ele>
<time>2012-07-18T12:10:05Z</time>
<speed>5.780000</speed>
<extensions>
<speed>5.8</speed>
<temp>0.00</temp>
<bpm>0</bpm>
<rpm>0.00</rpm>
</extensions>
</trkpt>
<trkpt lat="64.135177612" lon="-21.924468994">
<ele>18.3</ele>
<time>2012-07-18T12:10:10Z</time>
<speed>6.240000</speed>
<extensions>
<speed>6.2</speed>
<temp>0.00</temp>
<bpm>0</bpm>
<rpm>0.00</rpm>
</extensions>
</trkpt>
<trkpt lat="64.135429382" lon="-21.924650192">
<ele>17.2</ele>
<time>2012-07-18T12:10:15Z</time>
<speed>6.930000</speed>
<extensions>
<speed>6.9</speed>
<temp>0.00</temp>
<bpm>0</bpm>
<rpm>0.00</rpm>
</extensions>
</trkpt>
<trkpt lat="64.135765076" lon="-21.923919678">
<ele>19.0</ele>
<time>2012-07-18T12:10:25Z</time>
<speed>3.980000</speed>
<extensions>
<speed>4.0</speed>
<temp>0.00</temp>
<bpm>0</bpm>
<rpm>0.00</rpm>
</extensions>
</trkpt>
<trkpt lat="64.135803223" lon="-21.923118591">
<ele>19.1</ele>
<time>2012-07-18T12:10:40Z</time>
<speed>2.060000</speed>
<extensions>
<speed>2.1</speed>
<temp>0.00</temp>
<bpm>0</bpm>
<rpm>0.00</rpm>
</extensions>
</trkpt>
<trkpt lat="64.135520935" lon="-21.921598434">
<ele>22.2</ele>
<time>2012-07-18T12:11:15Z</time>
<speed>3.250000</speed>
<extensions>
<speed>3.2</speed>
<temp>0.00</temp>
<bpm>0</bpm>
<rpm>0.00</rpm>
</extensions>
</trkpt>
<trkpt lat="64.136070251" lon="-21.918933868">
<ele>20.9</ele>
<time>2012-07-18T12:11:50Z</time>
<speed>4.260000</speed>
<extensions>
<speed>4.3</speed>
<temp>0.00</temp>
<bpm>0</bpm>
<rpm>0.00</rpm>
</extensions>
</trkpt>
<trkpt lat="64.132911682" lon="-21.898836136">
<ele>35.5</ele>
<time>2012-07-18T12:18:15Z</time>
<speed>2.340000</speed>
<extensions>
<speed>2.3</speed>
<temp>0.00</temp>
<bpm>0</bpm>
<rpm>0.00</rpm>
</extensions>
</trkpt>
<trkpt lat="64.132423401" lon="-21.894979477">
<ele>36.1</ele>
<time>2012-07-18T12:19:20Z</time>
<speed>4.100000</speed>
<extensions>
<speed>4.1</speed>
<temp>0.00</temp>
<bpm>0</bpm>
<rpm>0.00</rpm>
</extensions>
</trkpt>
<trkpt lat="64.131851196" lon="-21.891716003">
<ele>37.2</ele>
<time>2012-07-18T12:20:05Z</time>
<speed>2.420000</speed>
<extensions>
<speed>2.4</speed>
<temp>0.00</temp>
<bpm>0</bpm>
<rpm>0.00</rpm>
</extensions>
</trkpt>
<trkpt lat="64.131713867" lon="-21.891561508">
<ele>38.5</ele>
<time>2012-07-18T12:20:25Z</time>
<speed>1.600000</speed>
<extensions>
<speed>1.6</speed>
<temp>0.00</temp>
<bpm>0</bpm>
<rpm>0.00</rpm>
</extensions>
</trkpt>
<trkpt lat="64.131736755" lon="-21.890649796">
<ele>39.7</ele>
<time>2012-07-18T12:20:45Z</time>
<speed>1.900000</speed>
<extensions>
<speed>1.9</speed>
<temp>0.00</temp>
<bpm>0</bpm>
<rpm>0.00</rpm>
</extensions>
</trkpt>
<trkpt lat="64.131355286" lon="-21.889528275">
<ele>41.3</ele>
<time>2012-07-18T12:21:15Z</time>
<speed>2.510000</speed>
<extensions>
<speed>2.5</speed>
<temp>0.00</temp>
<bpm>0</bpm>
<rpm>0.00</rpm>
</extensions>
</trkpt>
<trkpt lat="64.130775452" lon="-21.885641098">
<ele>48.1</ele>
<time>2012-07-18T12:22:30Z</time>
<speed>2.860000</speed>
<extensions>
<speed>2.9</speed>
<temp>0.00</temp>
<bpm>0</bpm>
<rpm>0.00</rpm>
</extensions>
</trkpt>
<trkpt lat="64.130805969" lon="-21.884220123">
<ele>47.5</ele>
<time>2012-07-18T12:22:55Z</time>
<speed>2.080000</speed>
<extensions>
<speed>2.1</speed>
<temp>0.00</temp>
<bpm>0</bpm>
<rpm>0.00</rpm>
</extensions>
</trkpt>
<trkpt lat="64.130676270" lon="-21.883508682">
<ele>49.3</ele>
<time>2012-07-18T12:24:55Z</time>
<speed>2.270000</speed>
<extensions>
<speed>2.3</speed>
<temp>0.00</temp>
<bpm>0</bpm>
<rpm>0.00</rpm>
</extensions>
</trkpt>
<trkpt lat="64.130180359" lon="-21.882469177">
<ele>48.3</ele>
<time>2012-07-18T12:25:20Z</time>
<speed>3.220000</speed>
<extensions>
<speed>3.2</speed>
<temp>0.00</temp>
<bpm>0</bpm>
<rpm>0.00</rpm>
</extensions>
</trkpt>
<trkpt lat="64.129417419" lon="-21.875852585">
<ele>32.9</ele>
<time>2012-07-18T12:26:25Z</time>
<speed>0.120000</speed>
<extensions>
<speed>0.1</speed>
<temp>0.00</temp>
<bpm>0</bpm>
<rpm>0.00</rpm>
</extensions>
</trkpt>
<trkpt lat="64.129219055" lon="-21.875106812">
<ele>32.2</ele>
<time>2012-07-18T12:27:35Z</time>
<speed>0.110000</speed>
<extensions>
<speed>0.1</speed>
<temp>0.00</temp>
<bpm>0</bpm>
<rpm>0.00</rpm>
</extensions>
</trkpt>
<trkpt lat="64.129402161" lon="-21.875995636">
<ele>33.6</ele>
<time>2012-07-18T12:28:10Z</time>
<speed>2.880000</speed>
<extensions>
<speed>2.9</speed>
<temp>0.00</temp>
<bpm>0</bpm>
<rpm>0.00</rpm>
</extensions>
</trkpt>
<trkpt lat="64.128952026" lon="-21.876333237">
<ele>35.1</ele>
<time>2012-07-18T12:28:45Z</time>
<speed>0.230000</speed>
<extensions>
<speed>0.2</speed>
<temp>0.00</temp>
<bpm>0</bpm>
<rpm>0.00</rpm>
</extensions>
</trkpt>
<trkpt lat="64.128944397" lon="-21.875785828">
<ele>35.0</ele>
<time>2012-07-18T12:31:55Z</time>
<speed>0.010000</speed>
<extensions>
<speed>0.0</speed>
<temp>0.00</temp>
<bpm>0</bpm>
<rpm>0.00</rpm>
</extensions>
</trkpt>
<trkpt lat="64.128890991" lon="-21.876514435">
<ele>35.4</ele>
<time>2012-07-18T12:34:50Z</time>
<speed>0.130000</speed>
<extensions>
<speed>0.1</speed>
<temp>0.00</temp>
<bpm>0</bpm>
<rpm>0.00</rpm>
</extensions>
</trkpt>
<trkpt lat="64.128829956" lon="-21.875877380">
<ele>35.4</ele>
<time>2012-07-18T12:36:25Z</time>
<speed>0.250000</speed>
<extensions>
<speed>0.2</speed>
<temp>0.00</temp>
<bpm>0</bpm>
<rpm>0.00</rpm>
</extensions>
</trkpt>
<trkpt lat="64.128898621" lon="-21.876434326">
<ele>35.4</ele>
<time>2012-07-18T12:42:05Z</time>
<speed>0.260000</speed>
<extensions>
<speed>0.3</speed>
<temp>0.00</temp>
<bpm>0</bpm>
<rpm>0.00</rpm>
</extensions>
</trkpt>
<trkpt lat="64.129379272" lon="-21.875841141">
<ele>33.0</ele>
<time>2012-07-18T12:44:00Z</time>
<speed>0.050000</speed>
<extensions>
<speed>0.1</speed>
<temp>0.00</temp>
<bpm>0</bpm>
<rpm>0.00</rpm>
</extensions>
</trkpt>
<trkpt lat="64.128608704" lon="-21.871934891">
<ele>30.1</ele>
<time>2012-07-18T12:45:25Z</time>
<speed>4.490000</speed>
<extensions>
<speed>4.5</speed>
<temp>0.00</temp>
<bpm>0</bpm>
<rpm>0.00</rpm>
</extensions>
</trkpt>
<trkpt lat="64.128402710" lon="-21.869670868">
<ele>28.0</ele>
<time>2012-07-18T12:45:55Z</time>
<speed>3.870000</speed>
<extensions>
<speed>3.9</speed>
<temp>0.00</temp>
<bpm>0</bpm>
<rpm>0.00</rpm>
</extensions>
</trkpt>
<trkpt lat="64.124771118" lon="-21.847740173">
<ele>9.9</ele>
<time>2012-07-18T12:49:00Z</time>
<speed>6.560000</speed>
<extensions>
<speed>6.6</speed>
<temp>0.00</temp>
<bpm>0</bpm>
<rpm>0.00</rpm>
</extensions>
</trkpt>
<trkpt lat="64.124122620" lon="-21.841535568">
<ele>5.0</ele>
<time>2012-07-18T12:49:45Z</time>
<speed>5.470000</speed>
<extensions>
<speed>5.5</speed>
<temp>0.00</temp>
<bpm>0</bpm>
<rpm>0.00</rpm>
</extensions>
</trkpt>
<trkpt lat="64.123832703" lon="-21.836839676">
<ele>19.8</ele>
<time>2012-07-18T12:50:40Z</time>
<speed>2.890000</speed>
<extensions>
<speed>2.9</speed>
<temp>0.00</temp>
<bpm>0</bpm>
<rpm>0.00</rpm>
</extensions>
</trkpt>
<trkpt lat="64.123725891" lon="-21.831266403">
<ele>36.7</ele>
<time>2012-07-18T12:52:50Z</time>
<speed>0.020000</speed>
<extensions>
<speed>0.0</speed>
<temp>0.00</temp>
<bpm>0</bpm>
<rpm>0.00</rpm>
</extensions>
</trkpt>
<trkpt lat="64.124107361" lon="-21.811603546">
<ele>55.1</ele>
<time>2012-07-18T12:56:55Z</time>
<speed>5.620000</speed>
<extensions>
<speed>5.6</speed>
<temp>0.00</temp>
<bpm>0</bpm>
<rpm>0.00</rpm>
</extensions>
</trkpt>
<trkpt lat="64.124282837" lon="-21.793430328">
<ele>39.7</ele>
<time>2012-07-18T12:59:45Z</time>
<speed>4.330000</speed>
<extensions>
<speed>4.3</speed>
<temp>0.00</temp>
<bpm>0</bpm>
<rpm>0.00</rpm>
</extensions>
</trkpt>
<trkpt lat="64.124412537" lon="-21.789638519">
<ele>39.4</ele>
<time>2012-07-18T13:00:20Z</time>
<speed>5.660000</speed>
<extensions>
<speed>5.7</speed>
<temp>0.00</temp>
<bpm>0</bpm>
<rpm>0.00</rpm>
</extensions>
</trkpt>
<trkpt lat="64.124679565" lon="-21.786642075">
<ele>41.4</ele>
<time>2012-07-18T13:00:45Z</time>
<speed>6.300000</speed>
<extensions>
<speed>6.3</speed>
<temp>0.00</temp>
<bpm>0</bpm>
<rpm>0.00</rpm>
</extensions>
</trkpt>
<trkpt lat="64.125274658" lon="-21.782855988">
<ele>36.6</ele>
<time>2012-07-18T13:01:20Z</time>
<speed>5.610000</speed>
<extensions>
<speed>5.6</speed>
<temp>0.00</temp>
<bpm>0</bpm>
<rpm>0.00</rpm>
</extensions>
</trkpt>
<trkpt lat="64.126388550" lon="-21.778457642">
<ele>33.9</ele>
<time>2012-07-18T13:02:05Z</time>
<speed>5.210000</speed>
<extensions>
<speed>5.2</speed>
<temp>0.00</temp>
<bpm>0</bpm>
<rpm>0.00</rpm>
</extensions>
</trkpt>
<trkpt lat="64.130737305" lon="-21.766902924">
<ele>51.3</ele>
<time>2012-07-18T13:05:05Z</time>
<speed>4.010000</speed>
<extensions>
<speed>4.0</speed>
<temp>0.00</temp>
<bpm>0</bpm>
<rpm>0.00</rpm>
</extensions>
</trkpt>
<trkpt lat="64.132469177" lon="-21.763370514">
<ele>57.5</ele>
<time>2012-07-18T13:07:25Z</time>
<speed>0.150000</speed>
<extensions>
<speed>0.2</speed>
<temp>0.00</temp>
<bpm>0</bpm>
<rpm>0.00</rpm>
</extensions>
</trkpt>
<trkpt lat="64.135818481" lon="-21.760147095">
<ele>52.6</ele>
<time>2012-07-18T13:10:15Z</time>
<speed>5.540000</speed>
<extensions>
<speed>5.5</speed>
<temp>0.00</temp>
<bpm>0</bpm>
<rpm>0.00</rpm>
</extensions>
</trkpt>
<trkpt lat="64.136054993" lon="-21.759338379">
<ele>52.3</ele>
<time>2012-07-18T13:10:35Z</time>
<speed>2.730000</speed>
<extensions>
<speed>2.7</speed>
<temp>0.00</temp>
<bpm>0</bpm>
<rpm>0.00</rpm>
</extensions>
</trkpt>
<trkpt lat="64.140655518" lon="-21.756410599">
<ele>57.0</ele>
<time>2012-07-18T13:12:45Z</time>
<speed>2.350000</speed>
<extensions>
<speed>2.4</speed>
<temp>0.00</temp>
<bpm>0</bpm>
<rpm>0.00</rpm>
</extensions>
</trkpt>
<trkpt lat="64.141067505" lon="-21.755578995">
<ele>59.8</ele>
<time>2012-07-18T13:13:30Z</time>
<speed>3.030000</speed>
<extensions>
<speed>3.0</speed>
<temp>0.00</temp>
<bpm>0</bpm>
<rpm>0.00</rpm>
</extensions>
</trkpt>
<trkpt lat="64.141845703" lon="-21.752698898">
<ele>62.9</ele>
<time>2012-07-18T13:14:45Z</time>
<speed>2.500000</speed>
<extensions>
<speed>2.5</speed>
<temp>0.00</temp>
<bpm>0</bpm>
<rpm>0.00</rpm>
</extensions>
</trkpt>
<trkpt lat="64.141868591" lon="-21.751857758">
<ele>61.1</ele>
<time>2012-07-18T13:15:00Z</time>
<speed>3.080000</speed>
<extensions>
<speed>3.1</speed>
<temp>0.00</temp>
<bpm>0</bpm>
<rpm>0.00</rpm>
</extensions>
</trkpt>
<trkpt lat="64.142288208" lon="-21.751600266">
<ele>63.2</ele>
<time>2012-07-18T13:15:15Z</time>
<speed>3.110000</speed>
<extensions>
<speed>3.1</speed>
<temp>0.00</temp>
<bpm>0</bpm>
<rpm>0.00</rpm>
</extensions>
</trkpt>
<trkpt lat="64.142677307" lon="-21.750093460">
<ele>66.3</ele>
<time>2012-07-18T13:15:50Z</time>
<speed>1.880000</speed>
<extensions>
<speed>1.9</speed>
<temp>0.00</temp>
<bpm>0</bpm>
<rpm>0.00</rpm>
</extensions>
</trkpt>
<trkpt lat="64.143417358" lon="-21.748458862">
<ele>69.4</ele>
<time>2012-07-18T13:16:40Z</time>
<speed>2.410000</speed>
<extensions>
<speed>2.4</speed>
<temp>0.00</temp>
<bpm>0</bpm>
<rpm>0.00</rpm>
</extensions>
</trkpt>
<trkpt lat="64.143630981" lon="-21.748529434">
<ele>68.0</ele>
<time>2012-07-18T13:16:50Z</time>
<speed>2.240000</speed>
<extensions>
<speed>2.2</speed>
<temp>0.00</temp>
<bpm>0</bpm>
<rpm>0.00</rpm>
</extensions>
</trkpt>
<trkpt lat="64.143905640" lon="-21.749361038">
<ele>65.2</ele>
<time>2012-07-18T13:17:05Z</time>
<speed>2.580000</speed>
<extensions>
<speed>2.6</speed>
<temp>0.00</temp>
<bpm>0</bpm>
<rpm>0.00</rpm>
</extensions>
</trkpt>
<trkpt lat="64.144355774" lon="-21.749515533">
<ele>63.9</ele>
<time>2012-07-18T13:18:45Z</time>
<speed>6.470000</speed>
<extensions>
<speed>6.5</speed>
<temp>0.00</temp>
<bpm>0</bpm>
<rpm>0.00</rpm>
</extensions>
</trkpt>
<trkpt lat="64.144989014" lon="-21.750551224">
<ele>58.3</ele>
<time>2012-07-18T13:19:00Z</time>
<speed>3.660000</speed>
<extensions>
<speed>3.7</speed>
<temp>0.00</temp>
<bpm>0</bpm>
<rpm>0.00</rpm>
</extensions>
</trkpt>
<trkpt lat="64.145332336" lon="-21.750625610">
<ele>57.4</ele>
<time>2012-07-18T13:19:15Z</time>
<speed>0.320000</speed>
<extensions>
<speed>0.3</speed>
<temp>0.00</temp>
<bpm>0</bpm>
<rpm>0.00</rpm>
</extensions>
</trkpt>
<trkpt lat="64.148635864" lon="-21.743928909">
<ele>56.2</ele>
<time>2012-07-18T13:22:50Z</time>
<speed>2.820000</speed>
<extensions>
<speed>2.8</speed>
<temp>0.00</temp>
<bpm>0</bpm>
<rpm>0.00</rpm>
</extensions>
</trkpt>
<trkpt lat="64.151924133" lon="-21.739025116">
<ele>51.0</ele>
<time>2012-07-18T13:25:20Z</time>
<speed>2.330000</speed>
<extensions>
<speed>2.3</speed>
<temp>0.00</temp>
<bpm>0</bpm>
<rpm>0.00</rpm>
</extensions>
</trkpt>
<trkpt lat="64.154602051" lon="-21.734537125">
<ele>57.6</ele>
<time>2012-07-18T13:27:15Z</time>
<speed>4.350000</speed>
<extensions>
<speed>4.3</speed>
<temp>0.00</temp>
<bpm>0</bpm>
<rpm>0.00</rpm>
</extensions>
</trkpt>
<trkpt lat="64.155937195" lon="-21.731588364">
<ele>62.7</ele>
<time>2012-07-18T13:28:00Z</time>
<speed>5.050000</speed>
<extensions>
<speed>5.1</speed>
<temp>0.00</temp>
<bpm>0</bpm>
<rpm>0.00</rpm>
</extensions>
</trkpt>
<trkpt lat="64.158195496" lon="-21.725303650">
<ele>47.9</ele>
<time>2012-07-18T13:29:10Z</time>
<speed>4.360000</speed>
<extensions>
<speed>4.4</speed>
<temp>0.00</temp>
<bpm>0</bpm>
<rpm>0.00</rpm>
</extensions>
</trkpt>
<trkpt lat="64.158546448" lon="-21.723749161">
<ele>49.7</ele>
<time>2012-07-18T13:29:55Z</time>
<extensions>
<speed>0.0</speed>
<temp>0.00</temp>
<bpm>0</bpm>
<rpm>0.00</rpm>
</extensions>
</trkpt>
<trkpt lat="64.159080505" lon="-21.723094940">
<ele>49.1</ele>
<time>2012-07-18T13:32:40Z</time>
<speed>3.560000</speed>
<extensions>
<speed>3.6</speed>
<temp>0.00</temp>
<bpm>0</bpm>
<rpm>0.00</rpm>
</extensions>
</trkpt>
<trkpt lat="64.160079956" lon="-21.720224380">
<ele>49.5</ele>
<time>2012-07-18T13:33:35Z</time>
<speed>4.520000</speed>
<extensions>
<speed>4.5</speed>
<temp>0.00</temp>
<bpm>0</bpm>
<rpm>0.00</rpm>
</extensions>
</trkpt>
<trkpt lat="64.162841797" lon="-21.717092514">
<ele>60.6</ele>
<time>2012-07-18T13:35:35Z</time>
<speed>2.520000</speed>
<extensions>
<speed>2.5</speed>
<temp>0.00</temp>
<bpm>0</bpm>
<rpm>0.00</rpm>
</extensions>
</trkpt>
<trkpt lat="64.163269043" lon="-21.716321945">
<ele>62.9</ele>
<time>2012-07-18T13:35:55Z</time>
<speed>3.050000</speed>
<extensions>
<speed>3.0</speed>
<temp>0.00</temp>
<bpm>0</bpm>
<rpm>0.00</rpm>
</extensions>
</trkpt>
<trkpt lat="64.164054871" lon="-21.714036942">
<ele>61.9</ele>
<time>2012-07-18T13:36:40Z</time>
<speed>3.360000</speed>
<extensions>
<speed>3.4</speed>
<temp>0.00</temp>
<bpm>0</bpm>
<rpm>0.00</rpm>
</extensions>
</trkpt>
<trkpt lat="64.164710999" lon="-21.711437225">
<ele>65.3</ele>
<time>2012-07-18T13:37:20Z</time>
<speed>4.020000</speed>
<extensions>
<speed>4.0</speed>
<temp>0.00</temp>
<bpm>0</bpm>
<rpm>0.00</rpm>
</extensions>
</trkpt>
<trkpt lat="64.164863586" lon="-21.710084915">
<ele>63.5</ele>
<time>2012-07-18T13:37:40Z</time>
<speed>3.970000</speed>
<extensions>
<speed>4.0</speed>
<temp>0.00</temp>
<bpm>0</bpm>
<rpm>0.00</rpm>
</extensions>
</trkpt>
<trkpt lat="64.164764404" lon="-21.708040237">
<ele>62.5</ele>
<time>2012-07-18T13:38:05Z</time>
<speed>4.820000</speed>
<extensions>
<speed>4.8</speed>
<temp>0.00</temp>
<bpm>0</bpm>
<rpm>0.00</rpm>
</extensions>
</trkpt>
<trkpt lat="64.165618896" lon="-21.706487656">
<ele>59.5</ele>
<time>2012-07-18T13:38:40Z</time>
<speed>2.670000</speed>
<extensions>
<speed>2.7</speed>
<temp>0.00</temp>
<bpm>0</bpm>
<rpm>0.00</rpm>
</extensions>
</trkpt>
<trkpt lat="64.165771484" lon="-21.706615448">
<ele>59.0</ele>
<time>2012-07-18T13:38:50Z</time>
<speed>2.830000</speed>
<extensions>
<speed>2.8</speed>
<temp>0.00</temp>
<bpm>0</bpm>
<rpm>0.00</rpm>
</extensions>
</trkpt>
<trkpt lat="64.165809631" lon="-21.707275391">
<ele>58.1</ele>
<time>2012-07-18T13:39:05Z</time>
<speed>0.180000</speed>
<extensions>
<speed>0.2</speed>
<temp>0.00</temp>
<bpm>0</bpm>
<rpm>0.00</rpm>
</extensions>
</trkpt>
<trkpt lat="64.165626526" lon="-21.706401825">
<ele>59.5</ele>
<time>2012-07-18T13:43:15Z</time>
<speed>1.970000</speed>
<extensions>
<speed>2.0</speed>
<temp>0.00</temp>
<bpm>0</bpm>
<rpm>0.00</rpm>
</extensions>
</trkpt>
<trkpt lat="64.165222168" lon="-21.706371307">
<ele>61.4</ele>
<time>2012-07-18T13:43:35Z</time>
<speed>3.480000</speed>
<extensions>
<speed>3.5</speed>
<temp>0.00</temp>
<bpm>0</bpm>
<rpm>0.00</rpm>
</extensions>
</trkpt>
<trkpt lat="64.164932251" lon="-21.706892014">
<ele>61.9</ele>
<time>2012-07-18T13:43:45Z</time>
<speed>4.350000</speed>
<extensions>
<speed>4.3</speed>
<temp>0.00</temp>
<bpm>0</bpm>
<rpm>0.00</rpm>
</extensions>
</trkpt>
<trkpt lat="64.164642334" lon="-21.706512451">
<ele>67.2</ele>
<time>2012-07-18T13:43:55Z</time>
<speed>2.930000</speed>
<extensions>
<speed>2.9</speed>
<temp>0.00</temp>
<bpm>0</bpm>
<rpm>0.00</rpm>
</extensions>
</trkpt>
<trkpt lat="64.164413452" lon="-21.699699402">
<ele>60.7</ele>
<time>2012-07-18T13:45:55Z</time>
<speed>5.590000</speed>
<extensions>
<speed>5.6</speed>
<temp>0.00</temp>
<bpm>0</bpm>
<rpm>0.00</rpm>
</extensions>
</trkpt>
<trkpt lat="64.164474487" lon="-21.697546005">
<ele>54.4</ele>
<time>2012-07-18T13:46:10Z</time>
<speed>7.940000</speed>
<extensions>
<speed>7.9</speed>
<temp>0.00</temp>
<bpm>0</bpm>
<rpm>0.00</rpm>
</extensions>
</trkpt>
<trkpt lat="64.164764404" lon="-21.695026398">
<ele>49.6</ele>
<time>2012-07-18T13:46:25Z</time>
<speed>8.300000</speed>
<extensions>
<speed>8.3</speed>
<temp>0.00</temp>
<bpm>0</bpm>
<rpm>0.00</rpm>
</extensions>
</trkpt>
<trkpt lat="64.165306091" lon="-21.693038940">
<ele>45.5</ele>
<time>2012-07-18T13:46:40Z</time>
<speed>7.140000</speed>
<extensions>
<speed>7.1</speed>
<temp>0.00</temp>
<bpm>0</bpm>
<rpm>0.00</rpm>
</extensions>
</trkpt>
<trkpt lat="64.166900635" lon="-21.690340042">
<ele>38.9</ele>
<time>2012-07-18T13:47:10Z</time>
<speed>9.790000</speed>
<extensions>
<speed>9.8</speed>
<temp>0.00</temp>
<bpm>0</bpm>
<rpm>0.00</rpm>
</extensions>
</trkpt>
<trkpt lat="64.167411804" lon="-21.688499451">
<ele>30.9</ele>
<time>2012-07-18T13:47:20Z</time>
<speed>11.140000</speed>
<extensions>
<speed>11.1</speed>
<temp>0.00</temp>
<bpm>0</bpm>
<rpm>0.00</rpm>
</extensions>
</trkpt>
<trkpt lat="64.167762756" lon="-21.684257507">
<ele>21.7</ele>
<time>2012-07-18T13:47:40Z</time>
<speed>7.080000</speed>
<extensions>
<speed>7.1</speed>
<temp>0.00</temp>
<bpm>0</bpm>
<rpm>0.00</rpm>
</extensions>
</trkpt>
<trkpt lat="64.167770386" lon="-21.683580399">
<ele>23.3</ele>
<time>2012-07-18T13:47:45Z</time>
<speed>5.980000</speed>
<extensions>
<speed>6.0</speed>
<temp>0.00</temp>
<bpm>0</bpm>
<rpm>0.00</rpm>
</extensions>
</trkpt>
<trkpt lat="64.167533875" lon="-21.682506561">
<ele>24.5</ele>
<time>2012-07-18T13:48:05Z</time>
<speed>3.410000</speed>
<extensions>
<speed>3.4</speed>
<temp>0.00</temp>
<bpm>0</bpm>
<rpm>0.00</rpm>
</extensions>
</trkpt>
<trkpt lat="64.167793274" lon="-21.683162689">
<ele>24.8</ele>
<time>2012-07-18T13:48:20Z</time>
<speed>0.160000</speed>
<extensions>
<speed>0.2</speed>
<temp>0.00</temp>
<bpm>0</bpm>
<rpm>0.00</rpm>
</extensions>
</trkpt>
<trkpt lat="64.167816162" lon="-21.682786942">
<ele>24.9</ele>
<time>2012-07-18T13:48:35Z</time>
<speed>2.200000</speed>
<extensions>
<speed>2.2</speed>
<temp>0.00</temp>
<bpm>0</bpm>
<rpm>0.00</rpm>
</extensions>
</trkpt>
<trkpt lat="64.168945313" lon="-21.680946350">
<ele>32.8</ele>
<time>2012-07-18T13:51:20Z</time>
<speed>2.150000</speed>
<extensions>
<speed>2.1</speed>
<temp>0.00</temp>
<bpm>0</bpm>
<rpm>0.00</rpm>
</extensions>
</trkpt>
<trkpt lat="64.171745300" lon="-21.676866531">
<ele>51.5</ele>
<time>2012-07-18T13:54:10Z</time>
<speed>2.100000</speed>
<extensions>
<speed>2.1</speed>
<temp>0.00</temp>
<bpm>0</bpm>
<rpm>0.00</rpm>
</extensions>
</trkpt>
<trkpt lat="64.172912598" lon="-21.676073074">
<ele>50.2</ele>
<time>2012-07-18T13:54:55Z</time>
<speed>2.980000</speed>
<extensions>
<speed>3.0</speed>
<temp>0.00</temp>
<bpm>0</bpm>
<rpm>0.00</rpm>
</extensions>
</trkpt>
<trkpt lat="64.175094604" lon="-21.675964355">
<ele>48.0</ele>
<time>2012-07-18T13:56:15Z</time>
<speed>2.890000</speed>
<extensions>
<speed>2.9</speed>
<temp>0.00</temp>
<bpm>0</bpm>
<rpm>0.00</rpm>
</extensions>
</trkpt>
<trkpt lat="64.176063538" lon="-21.675470352">
<ele>48.8</ele>
<time>2012-07-18T13:56:45Z</time>
<speed>3.190000</speed>
<extensions>
<speed>3.2</speed>
<temp>0.00</temp>
<bpm>0</bpm>
<rpm>0.00</rpm>
</extensions>
</trkpt>
<trkpt lat="64.177536011" lon="-21.673374176">
<ele>54.3</ele>
<time>2012-07-18T14:00:40Z</time>
<speed>2.140000</speed>
<extensions>
<speed>2.1</speed>
<temp>0.00</temp>
<bpm>0</bpm>
<rpm>0.00</rpm>
</extensions>
</trkpt>
<trkpt lat="64.178100586" lon="-21.671464920">
<ele>57.5</ele>
<time>2012-07-18T14:01:20Z</time>
<speed>3.720000</speed>
<extensions>
<speed>3.7</speed>
<temp>0.00</temp>
<bpm>0</bpm>
<rpm>0.00</rpm>
</extensions>
</trkpt>
<trkpt lat="64.178298950" lon="-21.668582916">
<ele>58.0</ele>
<time>2012-07-18T14:03:15Z</time>
<speed>0.600000</speed>
<extensions>
<speed>0.6</speed>
<temp>0.00</temp>
<bpm>0</bpm>
<rpm>0.00</rpm>
</extensions>
</trkpt>
<trkpt lat="64.177947998" lon="-21.669107437">
<ele>60.9</ele>
<time>2012-07-18T14:03:40Z</time>
<speed>1.010000</speed>
<extensions>
<speed>1.0</speed>
<temp>0.00</temp>
<bpm>0</bpm>
<rpm>0.00</rpm>
</extensions>
</trkpt>
<trkpt lat="64.176971436" lon="-21.668966293">
<ele>71.0</ele>
<time>2012-07-18T14:05:00Z</time>
<speed>2.190000</speed>
<extensions>
<speed>2.2</speed>
<temp>0.00</temp>
<bpm>0</bpm>
<rpm>0.00</rpm>
</extensions>
</trkpt>
<trkpt lat="64.175727844" lon="-21.667577744">
<ele>83.6</ele>
<time>2012-07-18T14:06:40Z</time>
<speed>0.010000</speed>
<extensions>
<speed>0.0</speed>
<temp>0.00</temp>
<bpm>0</bpm>
<rpm>0.00</rpm>
</extensions>
</trkpt>
<trkpt lat="64.175910950" lon="-21.666578293">
<ele>86.1</ele>
<time>2012-07-18T14:07:35Z</time>
<speed>0.030000</speed>
<extensions>
<speed>0.0</speed>
<temp>0.00</temp>
<bpm>0</bpm>
<rpm>0.00</rpm>
</extensions>
</trkpt>
<trkpt lat="64.175590515" lon="-21.667612076">
<ele>83.7</ele>
<time>2012-07-18T14:08:20Z</time>
<speed>2.960000</speed>
<extensions>
<speed>3.0</speed>
<temp>0.00</temp>
<bpm>0</bpm>
<rpm>0.00</rpm>
</extensions>
</trkpt>
<trkpt lat="64.173606873" lon="-21.669229507">
<ele>76.7</ele>
<time>2012-07-18T14:09:15Z</time>
<speed>4.330000</speed>
<extensions>
<speed>4.3</speed>
<temp>0.00</temp>
<bpm>0</bpm>
<rpm>0.00</rpm>
</extensions>
</trkpt>
<trkpt lat="64.172706604" lon="-21.671167374">
<ele>73.4</ele>
<time>2012-07-18T14:09:45Z</time>
<speed>4.030000</speed>
<extensions>
<speed>4.0</speed>
<temp>0.00</temp>
<bpm>0</bpm>
<rpm>0.00</rpm>
</extensions>
</trkpt>
<trkpt lat="64.171302795" lon="-21.672214508">
<ele>67.5</ele>
<time>2012-07-18T14:10:30Z</time>
<speed>4.600000</speed>
<extensions>
<speed>4.6</speed>
<temp>0.00</temp>
<bpm>0</bpm>
<rpm>0.00</rpm>
</extensions>
</trkpt>
<trkpt lat="64.171173096" lon="-21.672052383">
<ele>66.1</ele>
<time>2012-07-18T14:10:35Z</time>
<speed>3.390000</speed>
<extensions>
<speed>3.4</speed>
<temp>0.00</temp>
<bpm>0</bpm>
<rpm>0.00</rpm>
</extensions>
</trkpt>
<trkpt lat="64.170440674" lon="-21.667102814">
<ele>75.7</ele>
<time>2012-07-18T14:12:10Z</time>
<speed>3.910000</speed>
<extensions>
<speed>3.9</speed>
<temp>0.00</temp>
<bpm>0</bpm>
<rpm>0.00</rpm>
</extensions>
</trkpt>
<trkpt lat="64.170272827" lon="-21.664367676">
<ele>80.8</ele>
<time>2012-07-18T14:13:00Z</time>
<speed>2.700000</speed>
<extensions>
<speed>2.7</speed>
<temp>0.00</temp>
<bpm>0</bpm>
<rpm>0.00</rpm>
</extensions>
</trkpt>
<trkpt lat="64.168945313" lon="-21.655530930">
<ele>103.4</ele>
<time>2012-07-18T14:16:30Z</time>
<speed>0.020000</speed>
<extensions>
<speed>0.0</speed>
<temp>0.00</temp>
<bpm>0</bpm>
<rpm>0.00</rpm>
</extensions>
</trkpt>
<trkpt lat="64.168899536" lon="-21.653686523">
<ele>104.7</ele>
<time>2012-07-18T14:23:35Z</time>
<speed>0.610000</speed>
<extensions>
<speed>0.6</speed>
<temp>0.00</temp>
<bpm>0</bpm>
<rpm>0.00</rpm>
</extensions>
</trkpt>
<trkpt lat="64.169471741" lon="-21.654041290">
<ele>123.0</ele>
<time>2012-07-18T14:25:05Z</time>
<speed>0.950000</speed>
<extensions>
<speed>1.0</speed>
<temp>0.00</temp>
<bpm>0</bpm>
<rpm>0.00</rpm>
</extensions>
</trkpt>
<trkpt lat="64.170562744" lon="-21.655376434">
<ele>153.9</ele>
<time>2012-07-18T14:28:00Z</time>
<speed>0.550000</speed>
<extensions>
<speed>0.6</speed>
<temp>0.00</temp>
<bpm>0</bpm>
<rpm>0.00</rpm>
</extensions>
</trkpt>
<trkpt lat="64.171745300" lon="-21.655651093">
<ele>186.4</ele>
<time>2012-07-18T14:30:45Z</time>
<speed>0.840000</speed>
<extensions>
<speed>0.8</speed>
<temp>0.00</temp>
<bpm>0</bpm>
<rpm>0.00</rpm>
</extensions>
</trkpt>
<trkpt lat="64.172096252" lon="-21.655525208">
<ele>193.3</ele>
<time>2012-07-18T14:31:25Z</time>
<speed>1.080000</speed>
<extensions>
<speed>1.1</speed>
<temp>0.00</temp>
<bpm>0</bpm>
<rpm>0.00</rpm>
</extensions>
</trkpt>
<trkpt lat="64.172760010" lon="-21.654499054">
<ele>196.7</ele>
<time>2012-07-18T14:32:45Z</time>
<speed>0.090000</speed>
<extensions>
<speed>0.1</speed>
<temp>0.00</temp>
<bpm>0</bpm>
<rpm>0.00</rpm>
</extensions>
</trkpt>
<trkpt lat="64.172904968" lon="-21.654905319">
<ele>197.7</ele>
<time>2012-07-18T14:33:15Z</time>
<speed>0.340000</speed>
<extensions>
<speed>0.3</speed>
<temp>0.00</temp>
<bpm>0</bpm>
<rpm>0.00</rpm>
</extensions>
</trkpt>
<trkpt lat="64.173362732" lon="-21.653728485">
<ele>203.9</ele>
<time>2012-07-18T14:34:45Z</time>
<speed>0.110000</speed>
<extensions>
<speed>0.1</speed>
<temp>0.00</temp>
<bpm>0</bpm>
<rpm>0.00</rpm>
</extensions>
</trkpt>
<trkpt lat="64.172645569" lon="-21.654607773">
<ele>195.7</ele>
<time>2012-07-18T14:37:05Z</time>
<speed>0.910000</speed>
<extensions>
<speed>0.9</speed>
<temp>0.00</temp>
<bpm>0</bpm>
<rpm>0.00</rpm>
</extensions>
</trkpt>
<trkpt lat="64.172279358" lon="-21.655735016">
<ele>193.0</ele>
<time>2012-07-18T14:38:00Z</time>
<speed>1.280000</speed>
<extensions>
<speed>1.3</speed>
<temp>0.00</temp>
<bpm>0</bpm>
<rpm>0.00</rpm>
</extensions>
</trkpt>
<trkpt lat="64.171203613" lon="-21.656312943">
<ele>173.8</ele>
<time>2012-07-18T14:40:30Z</time>
<speed>0.630000</speed>
<extensions>
<speed>0.6</speed>
<temp>0.00</temp>
<bpm>0</bpm>
<rpm>0.00</rpm>
</extensions>
</trkpt>
<trkpt lat="64.170555115" lon="-21.654645920">
<ele>150.4</ele>
<time>2012-07-18T14:43:15Z</time>
<speed>0.780000</speed>
<extensions>
<speed>0.8</speed>
<temp>0.00</temp>
<bpm>0</bpm>
<rpm>0.00</rpm>
</extensions>
</trkpt>
<trkpt lat="64.169860840" lon="-21.654941559">
<ele>133.0</ele>
<time>2012-07-18T14:45:35Z</time>
<speed>0.830000</speed>
<extensions>
<speed>0.8</speed>
<temp>0.00</temp>
<bpm>0</bpm>
<rpm>0.00</rpm>
</extensions>
</trkpt>
<trkpt lat="64.169120789" lon="-21.654611588">
<ele>110.8</ele>
<time>2012-07-18T14:47:35Z</time>
<speed>0.930000</speed>
<extensions>
<speed>0.9</speed>
<temp>0.00</temp>
<bpm>0</bpm>
<rpm>0.00</rpm>
</extensions>
</trkpt>
<trkpt lat="64.168960571" lon="-21.654745102">
<ele>107.0</ele>
<time>2012-07-18T14:48:20Z</time>
<speed>0.870000</speed>
<extensions>
<speed>0.9</speed>
<temp>0.00</temp>
<bpm>0</bpm>
<rpm>0.00</rpm>
</extensions>
</trkpt>
<trkpt lat="64.169006348" lon="-21.655561447">
<ele>103.8</ele>
<time>2012-07-18T14:50:20Z</time>
<extensions>
<speed>0.0</speed>
<temp>0.00</temp>
<bpm>0</bpm>
<rpm>0.00</rpm>
</extensions>
</trkpt>
<trkpt lat="64.168693542" lon="-21.655464172">
<ele>101.5</ele>
<time>2012-07-18T14:51:05Z</time>
<speed>0.850000</speed>
<extensions>
<speed>0.8</speed>
<temp>0.00</temp>
<bpm>0</bpm>
<rpm>0.00</rpm>
</extensions>
</trkpt>
<trkpt lat="64.169067383" lon="-21.655782700">
<ele>103.2</ele>
<time>2012-07-18T14:51:40Z</time>
<speed>1.890000</speed>
<extensions>
<speed>1.9</speed>
<temp>0.00</temp>
<bpm>0</bpm>
<rpm>0.00</rpm>
</extensions>
</trkpt>
<trkpt lat="64.171195984" lon="-21.672348022">
<ele>65.8</ele>
<time>2012-07-18T14:55:50Z</time>
<speed>3.170000</speed>
<extensions>
<speed>3.2</speed>
<temp>0.00</temp>
<bpm>0</bpm>
<rpm>0.00</rpm>
</extensions>
</trkpt>
<trkpt lat="64.172569275" lon="-21.671316147">
<ele>73.6</ele>
<time>2012-07-18T14:57:00Z</time>
<speed>3.950000</speed>
<extensions>
<speed>4.0</speed>
<temp>0.00</temp>
<bpm>0</bpm>
<rpm>0.00</rpm>
</extensions>
</trkpt>
<trkpt lat="64.173645020" lon="-21.669160843">
<ele>77.0</ele>
<time>2012-07-18T14:57:45Z</time>
<speed>2.090000</speed>
<extensions>
<speed>2.1</speed>
<temp>0.00</temp>
<bpm>0</bpm>
<rpm>0.00</rpm>
</extensions>
</trkpt>
<trkpt lat="64.175575256" lon="-21.667600632">
<ele>83.8</ele>
<time>2012-07-18T14:58:55Z</time>
<speed>4.060000</speed>
<extensions>
<speed>4.1</speed>
<temp>0.00</temp>
<bpm>0</bpm>
<rpm>0.00</rpm>
</extensions>
</trkpt>
<trkpt lat="64.175910950" lon="-21.667573929">
<ele>83.4</ele>
<time>2012-07-18T14:59:05Z</time>
<speed>3.220000</speed>
<extensions>
<speed>3.2</speed>
<temp>0.00</temp>
<bpm>0</bpm>
<rpm>0.00</rpm>
</extensions>
</trkpt>
<trkpt lat="64.177337646" lon="-21.669170380">
<ele>69.8</ele>
<time>2012-07-18T15:00:40Z</time>
<speed>5.150000</speed>
<extensions>
<speed>5.2</speed>
<temp>0.00</temp>
<bpm>0</bpm>
<rpm>0.00</rpm>
</extensions>
</trkpt>
<trkpt lat="64.178192139" lon="-21.669113159">
<ele>58.5</ele>
<time>2012-07-18T15:01:00Z</time>
<speed>4.320000</speed>
<extensions>
<speed>4.3</speed>
<temp>0.00</temp>
<bpm>0</bpm>
<rpm>0.00</rpm>
</extensions>
</trkpt>
<trkpt lat="64.178314209" lon="-21.668859482">
<ele>58.2</ele>
<time>2012-07-18T15:01:05Z</time>
<speed>3.720000</speed>
<extensions>
<speed>3.7</speed>
<temp>0.00</temp>
<bpm>0</bpm>
<rpm>0.00</rpm>
</extensions>
</trkpt>
<trkpt lat="64.179542542" lon="-21.655632019">
<ele>57.9</ele>
<time>2012-07-18T15:03:50Z</time>
<speed>3.480000</speed>
<extensions>
<speed>3.5</speed>
<temp>0.00</temp>
<bpm>0</bpm>
<rpm>0.00</rpm>
</extensions>
</trkpt>
<trkpt lat="64.179840088" lon="-21.644392014">
<ele>44.5</ele>
<time>2012-07-18T15:07:30Z</time>
<speed>5.580000</speed>
<extensions>
<speed>5.6</speed>
<temp>0.00</temp>
<bpm>0</bpm>
<rpm>0.00</rpm>
</extensions>
</trkpt>
<trkpt lat="64.180175781" lon="-21.641744614">
<ele>41.1</ele>
<time>2012-07-18T15:10:25Z</time>
<speed>4.170000</speed>
<extensions>
<speed>4.2</speed>
<temp>0.00</temp>
<bpm>0</bpm>
<rpm>0.00</rpm>
</extensions>
</trkpt>
<trkpt lat="64.180793762" lon="-21.601476669">
<ele>53.1</ele>
<time>2012-07-18T15:18:15Z</time>
<speed>2.130000</speed>
<extensions>
<speed>2.1</speed>
<temp>0.00</temp>
<bpm>0</bpm>
<rpm>0.00</rpm>
</extensions>
</trkpt>
<trkpt lat="64.180435181" lon="-21.590801239">
<ele>64.5</ele>
<time>2012-07-18T15:20:45Z</time>
<speed>0.130000</speed>
<extensions>
<speed>0.1</speed>
<temp>0.00</temp>
<bpm>0</bpm>
<rpm>0.00</rpm>
</extensions>
</trkpt>
<trkpt lat="64.180755615" lon="-21.586345673">
<ele>68.6</ele>
<time>2012-07-18T15:22:00Z</time>
<speed>2.950000</speed>
<extensions>
<speed>2.9</speed>
<temp>0.00</temp>
<bpm>0</bpm>
<rpm>0.00</rpm>
</extensions>
</trkpt>
<trkpt lat="64.181266785" lon="-21.583255768">
<ele>77.3</ele>
<time>2012-07-18T15:23:00Z</time>
<speed>3.030000</speed>
<extensions>
<speed>3.0</speed>
<temp>0.00</temp>
<bpm>0</bpm>
<rpm>0.00</rpm>
</extensions>
</trkpt>
<trkpt lat="64.181243896" lon="-21.582986832">
<ele>78.0</ele>
<time>2012-07-18T15:23:05Z</time>
<speed>2.880000</speed>
<extensions>
<speed>2.9</speed>
<temp>0.00</temp>
<bpm>0</bpm>
<rpm>0.00</rpm>
</extensions>
</trkpt>
<trkpt lat="64.181129456" lon="-21.583276749">
<ele>76.5</ele>
<time>2012-07-18T15:23:40Z</time>
<speed>0.700000</speed>
<extensions>
<speed>0.7</speed>
<temp>0.00</temp>
<bpm>0</bpm>
<rpm>0.00</rpm>
</extensions>
</trkpt>
<trkpt lat="64.181251526" lon="-21.582818985">
<ele>78.0</ele>
<time>2012-07-18T15:28:25Z</time>
<speed>1.040000</speed>
<extensions>
<speed>1.0</speed>
<temp>0.00</temp>
<bpm>0</bpm>
<rpm>0.00</rpm>
</extensions>
</trkpt>
<trkpt lat="64.181076050" lon="-21.582109451">
<ele>79.4</ele>
<time>2012-07-18T15:28:45Z</time>
<speed>1.160000</speed>
<extensions>
<speed>1.2</speed>
<temp>0.00</temp>
<bpm>0</bpm>
<rpm>0.00</rpm>
</extensions>
</trkpt>
<trkpt lat="64.181335449" lon="-21.582921982">
<ele>77.5</ele>
<time>2012-07-18T15:29:25Z</time>
<speed>1.560000</speed>
<extensions>
<speed>1.6</speed>
<temp>0.00</temp>
<bpm>0</bpm>
<rpm>0.00</rpm>
</extensions>
</trkpt>
<trkpt lat="64.181838989" lon="-21.580293655">
<ele>83.9</ele>
<time>2012-07-18T15:30:50Z</time>
<speed>1.780000</speed>
<extensions>
<speed>1.8</speed>
<temp>0.00</temp>
<bpm>0</bpm>
<rpm>0.00</rpm>
</extensions>
</trkpt>
<trkpt lat="64.182708740" lon="-21.572519302">
<ele>96.2</ele>
<time>2012-07-18T15:33:05Z</time>
<speed>2.500000</speed>
<extensions>
<speed>2.5</speed>
<temp>0.00</temp>
<bpm>0</bpm>
<rpm>0.00</rpm>
</extensions>
</trkpt>
<trkpt lat="64.185012817" lon="-21.562538147">
<ele>103.9</ele>
<time>2012-07-18T15:35:45Z</time>
<speed>2.100000</speed>
<extensions>
<speed>2.1</speed>
<temp>0.00</temp>
<bpm>0</bpm>
<rpm>0.00</rpm>
</extensions>
</trkpt>
<trkpt lat="64.185470581" lon="-21.558284760">
<ele>111.3</ele>
<time>2012-07-18T15:37:10Z</time>
<speed>1.930000</speed>
<extensions>
<speed>1.9</speed>
<temp>0.00</temp>
<bpm>0</bpm>
<rpm>0.00</rpm>
</extensions>
</trkpt>
<trkpt lat="64.186157227" lon="-21.548458099">
<ele>129.5</ele>
<time>2012-07-18T15:41:10Z</time>
<speed>2.970000</speed>
<extensions>
<speed>3.0</speed>
<temp>0.00</temp>
<bpm>0</bpm>
<rpm>0.00</rpm>
</extensions>
</trkpt>
<trkpt lat="64.186561584" lon="-21.545375824">
<ele>136.7</ele>
<time>2012-07-18T15:42:10Z</time>
<speed>2.600000</speed>
<extensions>
<speed>2.6</speed>
<temp>0.00</temp>
<bpm>0</bpm>
<rpm>0.00</rpm>
</extensions>
</trkpt>
<trkpt lat="64.195503235" lon="-21.511844635">
<ele>208.9</ele>
<time>2012-07-18T15:53:55Z</time>
<speed>4.140000</speed>
<extensions>
<speed>4.1</speed>
<temp>0.00</temp>
<bpm>0</bpm>
<rpm>0.00</rpm>
</extensions>
</trkpt>
<trkpt lat="64.196083069" lon="-21.508140564">
<ele>209.6</ele>
<time>2012-07-18T15:54:40Z</time>
<speed>3.630000</speed>
<extensions>
<speed>3.6</speed>
<temp>0.00</temp>
<bpm>0</bpm>
<rpm>0.00</rpm>
</extensions>
</trkpt>
<trkpt lat="64.196975708" lon="-21.499752045">
<ele>205.4</ele>
<time>2012-07-18T15:55:55Z</time>
<speed>6.570000</speed>
<extensions>
<speed>6.6</speed>
<temp>0.00</temp>
<bpm>0</bpm>
<rpm>0.00</rpm>
</extensions>
</trkpt>
<trkpt lat="64.197715759" lon="-21.496496201">
<ele>200.8</ele>
<time>2012-07-18T15:56:20Z</time>
<speed>7.200000</speed>
<extensions>
<speed>7.2</speed>
<temp>0.00</temp>
<bpm>0</bpm>
<rpm>0.00</rpm>
</extensions>
</trkpt>
<trkpt lat="64.200439453" lon="-21.486825943">
<ele>195.6</ele>
<time>2012-07-18T15:57:40Z</time>
<speed>5.890000</speed>
<extensions>
<speed>5.9</speed>
<temp>0.00</temp>
<bpm>0</bpm>
<rpm>0.00</rpm>
</extensions>
</trkpt>
<trkpt lat="64.201042175" lon="-21.483837128">
<ele>195.1</ele>
<time>2012-07-18T15:58:05Z</time>
<speed>6.480000</speed>
<extensions>
<speed>6.5</speed>
<temp>0.00</temp>
<bpm>0</bpm>
<rpm>0.00</rpm>
</extensions>
</trkpt>
<trkpt lat="64.201400757" lon="-21.480600357">
<ele>195.7</ele>
<time>2012-07-18T15:58:30Z</time>
<speed>6.490000</speed>
<extensions>
<speed>6.5</speed>
<temp>0.00</temp>
<bpm>0</bpm>
<rpm>0.00</rpm>
</extensions>
</trkpt>
<trkpt lat="64.201805115" lon="-21.471460342">
<ele>205.1</ele>
<time>2012-07-18T16:00:00Z</time>
<speed>3.890000</speed>
<extensions>
<speed>3.9</speed>
<temp>0.00</temp>
<bpm>0</bpm>
<rpm>0.00</rpm>
</extensions>
</trkpt>
<trkpt lat="64.202095032" lon="-21.469045639">
<ele>205.3</ele>
<time>2012-07-18T16:00:40Z</time>
<speed>2.850000</speed>
<extensions>
<speed>2.9</speed>
<temp>0.00</temp>
<bpm>0</bpm>
<rpm>0.00</rpm>
</extensions>
</trkpt>
<trkpt lat="64.202896118" lon="-21.465253830">
<ele>213.6</ele>
<time>2012-07-18T16:02:00Z</time>
<speed>3.140000</speed>
<extensions>
<speed>3.1</speed>
<temp>0.00</temp>
<bpm>0</bpm>
<rpm>0.00</rpm>
</extensions>
</trkpt>
<trkpt lat="64.205108643" lon="-21.459526062">
<ele>224.0</ele>
<time>2012-07-18T16:04:05Z</time>
<speed>3.680000</speed>
<extensions>
<speed>3.7</speed>
<temp>0.00</temp>
<bpm>0</bpm>
<rpm>0.00</rpm>
</extensions>
</trkpt>
<trkpt lat="64.206085205" lon="-21.455776215">
<ele>227.0</ele>
<time>2012-07-18T16:05:10Z</time>
<speed>2.270000</speed>
<extensions>
<speed>2.3</speed>
<temp>0.00</temp>
<bpm>0</bpm>
<rpm>0.00</rpm>
</extensions>
</trkpt>
<trkpt lat="64.208923340" lon="-21.436061859">
<ele>235.5</ele>
<time>2012-07-18T16:09:05Z</time>
<speed>4.380000</speed>
<extensions>
<speed>4.4</speed>
<temp>0.00</temp>
<bpm>0</bpm>
<rpm>0.00</rpm>
</extensions>
</trkpt>
<trkpt lat="64.209655762" lon="-21.425767899">
<ele>230.1</ele>
<time>2012-07-18T16:10:50Z</time>
<speed>7.030000</speed>
<extensions>
<speed>7.0</speed>
<temp>0.00</temp>
<bpm>0</bpm>
<rpm>0.00</rpm>
</extensions>
</trkpt>
<trkpt lat="64.209579468" lon="-21.421672821">
<ele>223.7</ele>
<time>2012-07-18T16:11:15Z</time>
<speed>6.980000</speed>
<extensions>
<speed>7.0</speed>
<temp>0.00</temp>
<bpm>0</bpm>
<rpm>0.00</rpm>
</extensions>
</trkpt>
<trkpt lat="64.209228516" lon="-21.418855667">
<ele>229.2</ele>
<time>2012-07-18T16:11:40Z</time>
<speed>5.280000</speed>
<extensions>
<speed>5.3</speed>
<temp>0.00</temp>
<bpm>0</bpm>
<rpm>0.00</rpm>
</extensions>
</trkpt>
<trkpt lat="64.208778381" lon="-21.416809082">
<ele>230.8</ele>
<time>2012-07-18T16:12:05Z</time>
<speed>3.580000</speed>
<extensions>
<speed>3.6</speed>
<temp>0.00</temp>
<bpm>0</bpm>
<rpm>0.00</rpm>
</extensions>
</trkpt>
<trkpt lat="64.206886292" lon="-21.410179138">
<ele>246.0</ele>
<time>2012-07-18T16:15:30Z</time>
<speed>1.720000</speed>
<extensions>
<speed>1.7</speed>
<temp>0.00</temp>
<bpm>0</bpm>
<rpm>0.00</rpm>
</extensions>
</trkpt>
<trkpt lat="64.206352234" lon="-21.407720566">
<ele>245.6</ele>
<time>2012-07-18T16:16:15Z</time>
<speed>3.640000</speed>
<extensions>
<speed>3.6</speed>
<temp>0.00</temp>
<bpm>0</bpm>
<rpm>0.00</rpm>
</extensions>
</trkpt>
<trkpt lat="64.205688477" lon="-21.402284622">
<ele>244.1</ele>
<time>2012-07-18T16:17:10Z</time>
<speed>4.670000</speed>
<extensions>
<speed>4.7</speed>
<temp>0.00</temp>
<bpm>0</bpm>
<rpm>0.00</rpm>
</extensions>
</trkpt>
<trkpt lat="64.205718994" lon="-21.397920609">
<ele>241.3</ele>
<time>2012-07-18T16:17:55Z</time>
<speed>4.210000</speed>
<extensions>
<speed>4.2</speed>
<temp>0.00</temp>
<bpm>0</bpm>
<rpm>0.00</rpm>
</extensions>
</trkpt>
<trkpt lat="64.206138611" lon="-21.392660141">
<ele>242.7</ele>
<time>2012-07-18T16:18:50Z</time>
<speed>6.140000</speed>
<extensions>
<speed>6.1</speed>
<temp>0.00</temp>
<bpm>0</bpm>
<rpm>0.00</rpm>
</extensions>
</trkpt>
<trkpt lat="64.207199097" lon="-21.386877060">
<ele>247.8</ele>
<time>2012-07-18T16:20:00Z</time>
<speed>3.240000</speed>
<extensions>
<speed>3.2</speed>
<temp>0.00</temp>
<bpm>0</bpm>
<rpm>0.00</rpm>
</extensions>
</trkpt>
<trkpt lat="64.208053589" lon="-21.383073807">
<ele>249.0</ele>
<time>2012-07-18T16:20:50Z</time>
<speed>4.500000</speed>
<extensions>
<speed>4.5</speed>
<temp>0.00</temp>
<bpm>0</bpm>
<rpm>0.00</rpm>
</extensions>
</trkpt>
<trkpt lat="64.209625244" lon="-21.377630234">
<ele>252.2</ele>
<time>2012-07-18T16:22:05Z</time>
<speed>5.330000</speed>
<extensions>
<speed>5.3</speed>
<temp>0.00</temp>
<bpm>0</bpm>
<rpm>0.00</rpm>
</extensions>
</trkpt>
<trkpt lat="64.213287354" lon="-21.360702515">
<ele>253.1</ele>
<time>2012-07-18T16:24:45Z</time>
<speed>4.930000</speed>
<extensions>
<speed>4.9</speed>
<temp>0.00</temp>
<bpm>0</bpm>
<rpm>0.00</rpm>
</extensions>
</trkpt>
<trkpt lat="64.214385986" lon="-21.350109100">
<ele>258.9</ele>
<time>2012-07-18T16:26:20Z</time>
<speed>4.110000</speed>
<extensions>
<speed>4.1</speed>
<temp>0.00</temp>
<bpm>0</bpm>
<rpm>0.00</rpm>
</extensions>
</trkpt>
<trkpt lat="64.214637756" lon="-21.346395493">
<ele>263.0</ele>
<time>2012-07-18T16:27:00Z</time>
<speed>5.040000</speed>
<extensions>
<speed>5.0</speed>
<temp>0.00</temp>
<bpm>0</bpm>
<rpm>0.00</rpm>
</extensions>
</trkpt>
<trkpt lat="64.214378357" lon="-21.342758179">
<ele>259.3</ele>
<time>2012-07-18T16:27:35Z</time>
<speed>6.570000</speed>
<extensions>
<speed>6.6</speed>
<temp>0.00</temp>
<bpm>0</bpm>
<rpm>0.00</rpm>
</extensions>
</trkpt>
<trkpt lat="64.213127136" lon="-21.336938858">
<ele>247.0</ele>
<time>2012-07-18T16:28:10Z</time>
<speed>9.200000</speed>
<extensions>
<speed>9.2</speed>
<temp>0.00</temp>
<bpm>0</bpm>
<rpm>0.00</rpm>
</extensions>
</trkpt>
<trkpt lat="64.211174011" lon="-21.321357727">
<ele>234.4</ele>
<time>2012-07-18T16:29:50Z</time>
<speed>7.830000</speed>
<extensions>
<speed>7.8</speed>
<temp>0.00</temp>
<bpm>0</bpm>
<rpm>0.00</rpm>
</extensions>
</trkpt>
<trkpt lat="64.209907532" lon="-21.315288544">
<ele>231.4</ele>
<time>2012-07-18T16:30:30Z</time>
<speed>7.880000</speed>
<extensions>
<speed>7.9</speed>
<temp>0.00</temp>
<bpm>0</bpm>
<rpm>0.00</rpm>
</extensions>
</trkpt>
<trkpt lat="64.209625244" lon="-21.312902451">
<ele>229.7</ele>
<time>2012-07-18T16:30:45Z</time>
<speed>8.380000</speed>
<extensions>
<speed>8.4</speed>
<temp>0.00</temp>
<bpm>0</bpm>
<rpm>0.00</rpm>
</extensions>
</trkpt>
<trkpt lat="64.209671021" lon="-21.307018280">
<ele>228.7</ele>
<time>2012-07-18T16:31:20Z</time>
<speed>7.920000</speed>
<extensions>
<speed>7.9</speed>
<temp>0.00</temp>
<bpm>0</bpm>
<rpm>0.00</rpm>
</extensions>
</trkpt>
<trkpt lat="64.209182739" lon="-21.301294327">
<ele>228.3</ele>
<time>2012-07-18T16:32:00Z</time>
<speed>6.630000</speed>
<extensions>
<speed>6.6</speed>
<temp>0.00</temp>
<bpm>0</bpm>
<rpm>0.00</rpm>
</extensions>
</trkpt>
<trkpt lat="64.209159851" lon="-21.297586441">
<ele>227.3</ele>
<time>2012-07-18T16:32:25Z</time>
<speed>7.830000</speed>
<extensions>
<speed>7.8</speed>
<temp>0.00</temp>
<bpm>0</bpm>
<rpm>0.00</rpm>
</extensions>
</trkpt>
<trkpt lat="64.209548950" lon="-21.287900925">
<ele>220.4</ele>
<time>2012-07-18T16:33:30Z</time>
<speed>5.260000</speed>
<extensions>
<speed>5.3</speed>
<temp>0.00</temp>
<bpm>0</bpm>
<rpm>0.00</rpm>
</extensions>
</trkpt>
<trkpt lat="64.210205078" lon="-21.281610489">
<ele>219.2</ele>
<time>2012-07-18T16:34:30Z</time>
<speed>5.340000</speed>
<extensions>
<speed>5.3</speed>
<temp>0.00</temp>
<bpm>0</bpm>
<rpm>0.00</rpm>
</extensions>
</trkpt>
<trkpt lat="64.210098267" lon="-21.279775620">
<ele>217.1</ele>
<time>2012-07-18T16:34:45Z</time>
<speed>6.340000</speed>
<extensions>
<speed>6.3</speed>
<temp>0.00</temp>
<bpm>0</bpm>
<rpm>0.00</rpm>
</extensions>
</trkpt>
<trkpt lat="64.209571838" lon="-21.275917053">
<ele>215.8</ele>
<time>2012-07-18T16:35:15Z</time>
<speed>6.670000</speed>
<extensions>
<speed>6.7</speed>
<temp>0.00</temp>
<bpm>0</bpm>
<rpm>0.00</rpm>
</extensions>
</trkpt>
<trkpt lat="64.209434509" lon="-21.272296906">
<ele>216.4</ele>
<time>2012-07-18T16:35:40Z</time>
<speed>7.840000</speed>
<extensions>
<speed>7.8</speed>
<temp>0.00</temp>
<bpm>0</bpm>
<rpm>0.00</rpm>
</extensions>
</trkpt>
<trkpt lat="64.209747314" lon="-21.268754959">
<ele>210.2</ele>
<time>2012-07-18T16:36:00Z</time>
<speed>9.230000</speed>
<extensions>
<speed>9.2</speed>
<temp>0.00</temp>
<bpm>0</bpm>
<rpm>0.00</rpm>
</extensions>
</trkpt>
<trkpt lat="64.211105347" lon="-21.261047363">
<ele>207.9</ele>
<time>2012-07-18T16:36:55Z</time>
<speed>6.110000</speed>
<extensions>
<speed>6.1</speed>
<temp>0.00</temp>
<bpm>0</bpm>
<rpm>0.00</rpm>
</extensions>
</trkpt>
<trkpt lat="64.211082458" lon="-21.260065079">
<ele>206.2</ele>
<time>2012-07-18T16:37:40Z</time>
<speed>0.470000</speed>
<extensions>
<speed>0.5</speed>
<temp>0.00</temp>
<bpm>0</bpm>
<rpm>0.00</rpm>
</extensions>
</trkpt>
<trkpt lat="64.211067200" lon="-21.260290146">
<ele>206.8</ele>
<time>2012-07-18T16:37:55Z</time>
<speed>0.640000</speed>
<extensions>
<speed>0.6</speed>
<temp>0.00</temp>
<bpm>0</bpm>
<rpm>0.00</rpm>
</extensions>
</trkpt>
<trkpt lat="64.210815430" lon="-21.260044098">
<ele>206.2</ele>
<time>2012-07-18T16:39:20Z</time>
<extensions>
<speed>0.0</speed>
<temp>0.00</temp>
<bpm>0</bpm>
<rpm>0.00</rpm>
</extensions>
</trkpt>
<trkpt lat="64.211051941" lon="-21.260330200">
<ele>206.8</ele>
<time>2012-07-18T16:40:55Z</time>
<speed>0.220000</speed>
<extensions>
<speed>0.2</speed>
<temp>0.00</temp>
<bpm>0</bpm>
<rpm>0.00</rpm>
</extensions>
</trkpt>
<trkpt lat="64.210868835" lon="-21.259992599">
<ele>206.1</ele>
<time>2012-07-18T16:42:35Z</time>
<speed>0.030000</speed>
<extensions>
<speed>0.0</speed>
<temp>0.00</temp>
<bpm>0</bpm>
<rpm>0.00</rpm>
</extensions>
</trkpt>
<trkpt lat="64.211090088" lon="-21.260295868">
<ele>206.8</ele>
<time>2012-07-18T16:46:10Z</time>
<speed>1.060000</speed>
<extensions>
<speed>1.1</speed>
<temp>0.00</temp>
<bpm>0</bpm>
<rpm>0.00</rpm>
</extensions>
</trkpt>
<trkpt lat="64.211395264" lon="-21.259799957">
<ele>205.1</ele>
<time>2012-07-18T16:46:30Z</time>
<speed>3.580000</speed>
<extensions>
<speed>3.6</speed>
<temp>0.00</temp>
<bpm>0</bpm>
<rpm>0.00</rpm>
</extensions>
</trkpt>
<trkpt lat="64.212951660" lon="-21.253660202">
<ele>193.5</ele>
<time>2012-07-18T16:47:10Z</time>
<speed>8.460000</speed>
<extensions>
<speed>8.5</speed>
<temp>0.00</temp>
<bpm>0</bpm>
<rpm>0.00</rpm>
</extensions>
</trkpt>
<trkpt lat="64.219367981" lon="-21.235044479">
<ele>172.0</ele>
<time>2012-07-18T16:49:25Z</time>
<speed>6.470000</speed>
<extensions>
<speed>6.5</speed>
<temp>0.00</temp>
<bpm>0</bpm>
<rpm>0.00</rpm>
</extensions>
</trkpt>
<trkpt lat="64.222892761" lon="-21.222520828">
<ele>153.3</ele>
<time>2012-07-18T16:50:55Z</time>
<speed>8.840000</speed>
<extensions>
<speed>8.8</speed>
<temp>0.00</temp>
<bpm>0</bpm>
<rpm>0.00</rpm>
</extensions>
</trkpt>
<trkpt lat="64.223609924" lon="-21.217290878">
<ele>146.5</ele>
<time>2012-07-18T16:51:25Z</time>
<speed>8.970000</speed>
<extensions>
<speed>9.0</speed>
<temp>0.00</temp>
<bpm>0</bpm>
<rpm>0.00</rpm>
</extensions>
</trkpt>
<trkpt lat="64.224227905" lon="-21.214723587">
<ele>136.9</ele>
<time>2012-07-18T16:51:40Z</time>
<speed>10.260000</speed>
<extensions>
<speed>10.3</speed>
<temp>0.00</temp>
<bpm>0</bpm>
<rpm>0.00</rpm>
</extensions>
</trkpt>
<trkpt lat="64.226951599" lon="-21.208272934">
<ele>131.6</ele>
<time>2012-07-18T16:52:30Z</time>
<speed>7.320000</speed>
<extensions>
<speed>7.3</speed>
<temp>0.00</temp>
<bpm>0</bpm>
<rpm>0.00</rpm>
</extensions>
</trkpt>
<trkpt lat="64.229690552" lon="-21.200317383">
<ele>136.4</ele>
<time>2012-07-18T16:54:00Z</time>
<speed>4.740000</speed>
<extensions>
<speed>4.7</speed>
<temp>0.00</temp>
<bpm>0</bpm>
<rpm>0.00</rpm>
</extensions>
</trkpt>
<trkpt lat="64.230628967" lon="-21.198549271">
<ele>138.9</ele>
<time>2012-07-18T16:54:25Z</time>
<speed>5.280000</speed>
<extensions>
<speed>5.3</speed>
<temp>0.00</temp>
<bpm>0</bpm>
<rpm>0.00</rpm>
</extensions>
</trkpt>
<trkpt lat="64.233169556" lon="-21.196981430">
<ele>138.0</ele>
<time>2012-07-18T16:55:20Z</time>
<speed>5.330000</speed>
<extensions>
<speed>5.3</speed>
<temp>0.00</temp>
<bpm>0</bpm>
<rpm>0.00</rpm>
</extensions>
</trkpt>
<trkpt lat="64.235755920" lon="-21.192594528">
<ele>135.6</ele>
<time>2012-07-18T16:56:25Z</time>
<speed>5.750000</speed>
<extensions>
<speed>5.8</speed>
<temp>0.00</temp>
<bpm>0</bpm>
<rpm>0.00</rpm>
</extensions>
</trkpt>
<trkpt lat="64.237686157" lon="-21.190294266">
<ele>136.6</ele>
<time>2012-07-18T16:57:05Z</time>
<speed>5.660000</speed>
<extensions>
<speed>5.7</speed>
<temp>0.00</temp>
<bpm>0</bpm>
<rpm>0.00</rpm>
</extensions>
</trkpt>
<trkpt lat="64.239173889" lon="-21.187334061">
<ele>125.3</ele>
<time>2012-07-18T16:57:35Z</time>
<speed>9.730000</speed>
<extensions>
<speed>9.7</speed>
<temp>0.00</temp>
<bpm>0</bpm>
<rpm>0.00</rpm>
</extensions>
</trkpt>
<trkpt lat="64.241661072" lon="-21.185552597">
<ele>117.9</ele>
<time>2012-07-18T16:58:10Z</time>
<speed>6.450000</speed>
<extensions>
<speed>6.4</speed>
<temp>0.00</temp>
<bpm>0</bpm>
<rpm>0.00</rpm>
</extensions>
</trkpt>
<trkpt lat="64.242958069" lon="-21.183469772">
<ele>118.3</ele>
<time>2012-07-18T16:58:50Z</time>
<speed>4.900000</speed>
<extensions>
<speed>4.9</speed>
<temp>0.00</temp>
<bpm>0</bpm>
<rpm>0.00</rpm>
</extensions>
</trkpt>
<trkpt lat="64.243743896" lon="-21.181003571">
<ele>119.0</ele>
<time>2012-07-18T16:59:20Z</time>
<speed>5.680000</speed>
<extensions>
<speed>5.7</speed>
<temp>0.00</temp>
<bpm>0</bpm>
<rpm>0.00</rpm>
</extensions>
</trkpt>
<trkpt lat="64.247337341" lon="-21.165941238">
<ele>122.1</ele>
<time>2012-07-18T17:01:50Z</time>
<speed>5.160000</speed>
<extensions>
<speed>5.2</speed>
<temp>0.00</temp>
<bpm>0</bpm>
<rpm>0.00</rpm>
</extensions>
</trkpt>
<trkpt lat="64.248306274" lon="-21.162948608">
<ele>124.7</ele>
<time>2012-07-18T17:02:25Z</time>
<speed>5.170000</speed>
<extensions>
<speed>5.2</speed>
<temp>0.00</temp>
<bpm>0</bpm>
<rpm>0.00</rpm>
</extensions>
</trkpt>
<trkpt lat="64.250068665" lon="-21.159051895">
<ele>127.6</ele>
<time>2012-07-18T17:03:25Z</time>
<speed>5.030000</speed>
<extensions>
<speed>5.0</speed>
<temp>0.00</temp>
<bpm>0</bpm>
<rpm>0.00</rpm>
</extensions>
</trkpt>
<trkpt lat="64.252128601" lon="-21.153079987">
<ele>129.2</ele>
<time>2012-07-18T17:04:35Z</time>
<speed>5.480000</speed>
<extensions>
<speed>5.5</speed>
<temp>0.00</temp>
<bpm>0</bpm>
<rpm>0.00</rpm>
</extensions>
</trkpt>
<trkpt lat="64.253692627" lon="-21.146375656">
<ele>132.2</ele>
<time>2012-07-18T17:06:55Z</time>
<extensions>
<speed>0.0</speed>
<temp>0.00</temp>
<bpm>0</bpm>
<rpm>0.00</rpm>
</extensions>
</trkpt>
<trkpt lat="64.256340027" lon="-21.140333176">
<ele>133.6</ele>
<time>2012-07-18T17:09:15Z</time>
<speed>6.430000</speed>
<extensions>
<speed>6.4</speed>
<temp>0.00</temp>
<bpm>0</bpm>
<rpm>0.00</rpm>
</extensions>
</trkpt>
<trkpt lat="64.257225037" lon="-21.139095306">
<ele>133.2</ele>
<time>2012-07-18T17:09:35Z</time>
<speed>5.030000</speed>
<extensions>
<speed>5.0</speed>
<temp>0.00</temp>
<bpm>0</bpm>
<rpm>0.00</rpm>
</extensions>
</trkpt>
<trkpt lat="64.261398315" lon="-21.134723663">
<ele>135.2</ele>
<time>2012-07-18T17:11:20Z</time>
<speed>5.830000</speed>
<extensions>
<speed>5.8</speed>
<temp>0.00</temp>
<bpm>0</bpm>
<rpm>0.00</rpm>
</extensions>
</trkpt>
<trkpt lat="64.264282227" lon="-21.129001617">
<ele>135.8</ele>
<time>2012-07-18T17:12:40Z</time>
<speed>4.820000</speed>
<extensions>
<speed>4.8</speed>
<temp>0.00</temp>
<bpm>0</bpm>
<rpm>0.00</rpm>
</extensions>
</trkpt>
<trkpt lat="64.266136169" lon="-21.126955032">
<ele>136.7</ele>
<time>2012-07-18T17:13:25Z</time>
<speed>4.810000</speed>
<extensions>
<speed>4.8</speed>
<temp>0.00</temp>
<bpm>0</bpm>
<rpm>0.00</rpm>
</extensions>
</trkpt>
<trkpt lat="64.267280579" lon="-21.125186920">
<ele>135.8</ele>
<time>2012-07-18T17:13:55Z</time>
<speed>4.770000</speed>
<extensions>
<speed>4.8</speed>
<temp>0.00</temp>
<bpm>0</bpm>
<rpm>0.00</rpm>
</extensions>
</trkpt>
<trkpt lat="64.270652771" lon="-21.116754532">
<ele>136.3</ele>
<time>2012-07-18T17:16:05Z</time>
<speed>4.950000</speed>
<extensions>
<speed>4.9</speed>
<temp>0.00</temp>
<bpm>0</bpm>
<rpm>0.00</rpm>
</extensions>
</trkpt>
<trkpt lat="64.276107788" lon="-21.105411530">
<ele>139.0</ele>
<time>2012-07-18T17:18:40Z</time>
<speed>5.280000</speed>
<extensions>
<speed>5.3</speed>
<temp>0.00</temp>
<bpm>0</bpm>
<rpm>0.00</rpm>
</extensions>
</trkpt>
<trkpt lat="64.277160645" lon="-21.102827072">
<ele>137.6</ele>
<time>2012-07-18T17:19:10Z</time>
<speed>5.960000</speed>
<extensions>
<speed>6.0</speed>
<temp>0.00</temp>
<bpm>0</bpm>
<rpm>0.00</rpm>
</extensions>
</trkpt>
<trkpt lat="64.277877808" lon="-21.100347519">
<ele>137.1</ele>
<time>2012-07-18T17:19:40Z</time>
<speed>3.030000</speed>
<extensions>
<speed>3.0</speed>
<temp>0.00</temp>
<bpm>0</bpm>
<rpm>0.00</rpm>
</extensions>
</trkpt>
<trkpt lat="64.277786255" lon="-21.100912094">
<ele>137.7</ele>
<time>2012-07-18T17:19:50Z</time>
<speed>2.640000</speed>
<extensions>
<speed>2.6</speed>
<temp>0.00</temp>
<bpm>0</bpm>
<rpm>0.00</rpm>
</extensions>
</trkpt>
<trkpt lat="64.277725220" lon="-21.101095200">
<ele>137.9</ele>
<time>2012-07-18T17:19:55Z</time>
<speed>2.120000</speed>
<extensions>
<speed>2.1</speed>
<temp>0.00</temp>
<bpm>0</bpm>
<rpm>0.00</rpm>
</extensions>
</trkpt>
<trkpt lat="64.277694702" lon="-21.100799561">
<ele>137.3</ele>
<time>2012-07-18T17:20:15Z</time>
<speed>0.180000</speed>
<extensions>
<speed>0.2</speed>
<temp>0.00</temp>
<bpm>0</bpm>
<rpm>0.00</rpm>
</extensions>
</trkpt>
<trkpt lat="64.278778076" lon="-21.096418381">
<ele>125.6</ele>
<time>2012-07-18T17:23:10Z</time>
<speed>6.390000</speed>
<extensions>
<speed>6.4</speed>
<temp>0.00</temp>
<bpm>0</bpm>
<rpm>0.00</rpm>
</extensions>
</trkpt>
<trkpt lat="64.279273987" lon="-21.093303680">
<ele>114.8</ele>
<time>2012-07-18T17:23:30Z</time>
<speed>9.880000</speed>
<extensions>
<speed>9.9</speed>
<temp>0.00</temp>
<bpm>0</bpm>
<rpm>0.00</rpm>
</extensions>
</trkpt>
<trkpt lat="64.279296875" lon="-21.089399338">
<ele>115.2</ele>
<time>2012-07-18T17:24:00Z</time>
<speed>1.760000</speed>
<extensions>
<speed>1.8</speed>
<temp>0.00</temp>
<bpm>0</bpm>
<rpm>0.00</rpm>
</extensions>
</trkpt>
<trkpt lat="64.279861450" lon="-21.087753296">
<ele>114.9</ele>
<time>2012-07-18T17:25:30Z</time>
<speed>0.370000</speed>
<extensions>
<speed>0.4</speed>
<temp>0.00</temp>
<bpm>0</bpm>
<rpm>0.00</rpm>
</extensions>
</trkpt>
<trkpt lat="64.279762268" lon="-21.088193893">
<ele>115.0</ele>
<time>2012-07-18T17:27:24Z</time>
<speed>0.040000</speed>
<extensions>
<speed>0.0</speed>
<temp>0.00</temp>
<bpm>0</bpm>
<rpm>0.00</rpm>
</extensions>
</trkpt>
<trkpt lat="64.279853821" lon="-21.088043213">
<ele>114.9</ele>
<time>2012-07-18T17:27:39Z</time>
<speed>0.370000</speed>
<extensions>
<speed>0.4</speed>
<temp>0.00</temp>
<bpm>0</bpm>
<rpm>0.00</rpm>
</extensions>
</trkpt>
<trkpt lat="64.279930115" lon="-21.087133408">
<ele>114.5</ele>
<time>2012-07-18T17:28:24Z</time>
<speed>0.050000</speed>
<extensions>
<speed>0.1</speed>
<temp>0.00</temp>
<bpm>0</bpm>
<rpm>0.00</rpm>
</extensions>
</trkpt>
<trkpt lat="64.279907227" lon="-21.087865829">
<ele>114.9</ele>
<time>2012-07-18T17:31:14Z</time>
<speed>0.220000</speed>
<extensions>
<speed>0.2</speed>
<temp>0.00</temp>
<bpm>0</bpm>
<rpm>0.00</rpm>
</extensions>
</trkpt>
<trkpt lat="64.279914856" lon="-21.087106705">
<ele>114.5</ele>
<time>2012-07-18T17:35:19Z</time>
<speed>0.400000</speed>
<extensions>
<speed>0.4</speed>
<temp>0.00</temp>
<bpm>0</bpm>
<rpm>0.00</rpm>
</extensions>
</trkpt>
<trkpt lat="64.279747009" lon="-21.088178635">
<ele>115.0</ele>
<time>2012-07-18T17:37:34Z</time>
<speed>0.390000</speed>
<extensions>
<speed>0.4</speed>
<temp>0.00</temp>
<bpm>0</bpm>
<rpm>0.00</rpm>
</extensions>
</trkpt>
<trkpt lat="64.280006409" lon="-21.088403702">
<ele>115.1</ele>
<time>2012-07-18T17:38:44Z</time>
<speed>0.900000</speed>
<extensions>
<speed>0.9</speed>
<temp>0.00</temp>
<bpm>0</bpm>
<rpm>0.00</rpm>
</extensions>
</trkpt>
<trkpt lat="64.279861450" lon="-21.088577271">
<ele>115.1</ele>
<time>2012-07-18T17:40:08Z</time>
<speed>0.210000</speed>
<extensions>
<speed>0.2</speed>
<temp>0.00</temp>
<bpm>0</bpm>
<rpm>0.00</rpm>
</extensions>
</trkpt>
<trkpt lat="64.280014038" lon="-21.088220596">
<ele>115.0</ele>
<time>2012-07-18T17:40:38Z</time>
<speed>0.170000</speed>
<extensions>
<speed>0.2</speed>
<temp>0.00</temp>
<bpm>0</bpm>
<rpm>0.00</rpm>
</extensions>
</trkpt>
<trkpt lat="64.279808044" lon="-21.088237762">
<ele>115.0</ele>
<time>2012-07-18T17:41:33Z</time>
<speed>0.490000</speed>
<extensions>
<speed>0.5</speed>
<temp>0.00</temp>
<bpm>0</bpm>
<rpm>0.00</rpm>
</extensions>
</trkpt>
<trkpt lat="64.280036926" lon="-21.088081360">
<ele>115.0</ele>
<time>2012-07-18T17:42:38Z</time>
<speed>0.440000</speed>
<extensions>
<speed>0.4</speed>
<temp>0.00</temp>
<bpm>0</bpm>
<rpm>0.00</rpm>
</extensions>
</trkpt>
<trkpt lat="64.279640198" lon="-21.087350845">
<ele>114.6</ele>
<time>2012-07-18T17:43:55Z</time>
<speed>0.100000</speed>
<extensions>
<speed>0.1</speed>
<temp>0.00</temp>
<bpm>0</bpm>
<rpm>0.00</rpm>
</extensions>
</trkpt>
<trkpt lat="64.279960632" lon="-21.088247299">
<ele>115.0</ele>
<time>2012-07-18T17:44:35Z</time>
<speed>0.510000</speed>
<extensions>
<speed>0.5</speed>
<temp>0.00</temp>
<bpm>0</bpm>
<rpm>0.00</rpm>
</extensions>
</trkpt>
<trkpt lat="64.279998779" lon="-21.087938309">
<ele>115.0</ele>
<time>2012-07-18T17:44:50Z</time>
<speed>0.470000</speed>
<extensions>
<speed>0.5</speed>
<temp>0.00</temp>
<bpm>0</bpm>
<rpm>0.00</rpm>
</extensions>
</trkpt>
<trkpt lat="64.279785156" lon="-21.088212967">
<ele>115.0</ele>
<time>2012-07-18T17:45:25Z</time>
<speed>0.050000</speed>
<extensions>
<speed>0.1</speed>
<temp>0.00</temp>
<bpm>0</bpm>
<rpm>0.00</rpm>
</extensions>
</trkpt>
<trkpt lat="64.280014038" lon="-21.086956024">
<ele>114.5</ele>
<time>2012-07-18T17:48:20Z</time>
<speed>0.320000</speed>
<extensions>
<speed>0.3</speed>
<temp>0.00</temp>
<bpm>0</bpm>
<rpm>0.00</rpm>
</extensions>
</trkpt>
<trkpt lat="64.279869080" lon="-21.087116241">
<ele>114.4</ele>
<time>2012-07-18T17:58:35Z</time>
<speed>0.100000</speed>
<extensions>
<speed>0.1</speed>
<temp>0.00</temp>
<bpm>0</bpm>
<rpm>0.00</rpm>
</extensions>
</trkpt>
<trkpt lat="64.280075073" lon="-21.087064743">
<ele>114.7</ele>
<time>2012-07-18T18:08:25Z</time>
<speed>0.340000</speed>
<extensions>
<speed>0.3</speed>
<temp>0.00</temp>
<bpm>0</bpm>
<rpm>0.00</rpm>
</extensions>
</trkpt>
<trkpt lat="64.279907227" lon="-21.087364197">
<ele>114.6</ele>
<time>2012-07-18T18:09:20Z</time>
<speed>0.340000</speed>
<extensions>
<speed>0.3</speed>
<temp>0.00</temp>
<bpm>0</bpm>
<rpm>0.00</rpm>
</extensions>
</trkpt>
<trkpt lat="64.279937744" lon="-21.086818695">
<ele>114.4</ele>
<time>2012-07-18T18:10:45Z</time>
<speed>0.520000</speed>
<extensions>
<speed>0.5</speed>
<temp>0.00</temp>
<bpm>0</bpm>
<rpm>0.00</rpm>
</extensions>
</trkpt>
<trkpt lat="64.279937744" lon="-21.087137222">
<ele>114.5</ele>
<time>2012-07-18T18:12:35Z</time>
<speed>0.130000</speed>
<extensions>
<speed>0.1</speed>
<temp>0.00</temp>
<bpm>0</bpm>
<rpm>0.00</rpm>
</extensions>
</trkpt>
</trkseg>
</trk>
</gpx>